Observation data for Gail on 03/05/2021      Previous  Date  Next       Current Mesonet Observations  Soil Data  Daily Summary Page  Observations in Plain Language
KGGS 050600Z 32011KT 14/M05 A2996 RMK A01 T01441051  RH  026%=      5-min Rain = 0
KGGS 050601Z 32013G18KT 14/M05 A2996 RMK A01 T01441050  RH  026%=      5-min Rain = 0
KGGS 050602Z 32012KT 15/M05 A2996 RMK A01 T01461049  RH  026%=      5-min Rain = 0
KGGS 050603Z 32014KT 15/M05 A2996 RMK A01 T01461049  RH  025%=      5-min Rain = 0
KGGS 050604Z 32011KT 15/M05 A2996 RMK A01 T01471049  RH  025%=      5-min Rain = 0
KGGS 050605Z 32011KT 15/M05 A2996 RMK A01 T01471050  RH  025%=      5-min Rain = 0
KGGS 050606Z 32013G20KT 15/M05 A2996 RMK A01 T01461050  RH  025%=      5-min Rain = 0
KGGS 050607Z 32014KT 15/M05 A2996 RMK A01 T01481050  RH  025%=      5-min Rain = 0
KGGS 050608Z 32013KT 15/M05 A2996 RMK A01 T01491050  RH  025%=      5-min Rain = 0
KGGS 050609Z 32010KT 15/M05 A2996 RMK A01 T01491050  RH  025%=      5-min Rain = 0
KGGS 050610Z 31010KT 15/M05 A2996 RMK A01 T01481051  RH  025%=      5-min Rain = 0
KGGS 050611Z 31013G19KT 15/M05 A2995 RMK A01 T01461051  RH  025%=      5-min Rain = 0
KGGS 050612Z 31010G15KT 15/M05 A2995 RMK A01 T01481050  RH  025%=      5-min Rain = 0
KGGS 050613Z 31011KT 15/M05 A2995 RMK A01 T01481050  RH  025%=      5-min Rain = 0
KGGS 050614Z 31011KT 15/M05 A2995 RMK A01 T01471051  RH  025%=      5-min Rain = 0
KGGS 050615Z 31011KT 15/M05 A2995 RMK A01 T01471051  RH  025%=      5-min Rain = 0
KGGS 050616Z 31011KT 15/M05 A2995 RMK A01 T01461051  RH  025%=      5-min Rain = 0
KGGS 050617Z 31011KT 15/M05 A2995 RMK A01 T01451051  RH  025%=      5-min Rain = 0
KGGS 050618Z 31011G16KT 15/M05 A2995 RMK A01 T01451051  RH  025%=      5-min Rain = 0
KGGS 050619Z 31012KT 15/M05 A2995 RMK A01 T01451051  RH  025%=      5-min Rain = 0
KGGS 050620Z 31011KT 15/M05 A2995 RMK A01 T01451051  RH  025%=      5-min Rain = 0
KGGS 050621Z 31012KT 14/M05 A2995 RMK A01 T01441051  RH  025%=      5-min Rain = 0
KGGS 050622Z 31013KT 14/M05 A2996 RMK A01 T01441051  RH  026%=      5-min Rain = 0
KGGS 050623Z 31012KT 15/M05 A2996 RMK A01 T01451051  RH  025%=      5-min Rain = 0
KGGS 050624Z 31012KT 15/M05 A2996 RMK A01 T01451051  RH  025%=      5-min Rain = 0
KGGS 050625Z 31012KT 15/M05 A2996 RMK A01 T01451052  RH  025%=      5-min Rain = 0
KGGS 050626Z 31012KT 15/M05 A2996 RMK A01 T01451052  RH  025%=      5-min Rain = 0
KGGS 050627Z 30010KT 15/M05 A2996 RMK A01 T01451052  RH  025%=      5-min Rain = 0
KGGS 050628Z 30011KT 14/M05 A2996 RMK A01 T01441052  RH  025%=      5-min Rain = 0
KGGS 050629Z 31012KT 14/M05 A2996 RMK A01 T01431053  RH  025%=      5-min Rain = 0
KGGS 050630Z 30012KT 14/M05 A2996 RMK A01 T01431053  RH  025%=      5-min Rain = 0
KGGS 050631Z 29011KT 14/M05 A2996 RMK A01 T01441053  RH  025%=      5-min Rain = 0
KGGS 050632Z 30010KT 14/M05 A2996 RMK A01 T01441053  RH  025%=      5-min Rain = 0
KGGS 050633Z 30012KT 14/M05 A2996 RMK A01 T01431053  RH  025%=      5-min Rain = 0
KGGS 050634Z 29010KT 14/M05 A2996 RMK A01 T01441053  RH  025%=      5-min Rain = 0
KGGS 050635Z 29010KT 14/M05 A2996 RMK A01 T01431054  RH  025%=      5-min Rain = 0
KGGS 050636Z 30009KT 14/M05 A2996 RMK A01 T01411054  RH  025%=      5-min Rain = 0
KGGS 050637Z 30010KT 14/M05 A2996 RMK A01 T01391054  RH  026%=      5-min Rain = 0
KGGS 050638Z 30012KT 14/M05 A2996 RMK A01 T01381054  RH  026%=      5-min Rain = 0
KGGS 050639Z 30011KT 14/M05 A2996 RMK A01 T01391054  RH  026%=      5-min Rain = 0
KGGS 050640Z 30010KT 14/M05 A2996 RMK A01 T01391054  RH  026%=      5-min Rain = 0
KGGS 050641Z 30011KT 14/M05 A2996 RMK A01 T01391054  RH  026%=      5-min Rain = 0
KGGS 050642Z 29011KT 14/M05 A2996 RMK A01 T01391054  RH  026%=      5-min Rain = 0
KGGS 050643Z 30011KT 14/M05 A2996 RMK A01 T01391054  RH  026%=      5-min Rain = 0
KGGS 050644Z 29011KT 14/M05 A2996 RMK A01 T01391054  RH  026%=      5-min Rain = 0
KGGS 050645Z 29010KT 14/M05 A2996 RMK A01 T01381054  RH  026%=      5-min Rain = 0
KGGS 050646Z 29011KT 14/M05 A2996 RMK A01 T01371054  RH  026%=      5-min Rain = 0
KGGS 050647Z 29010KT 14/M05 A2996 RMK A01 T01351054  RH  026%=      5-min Rain = 0
KGGS 050648Z 30011KT 13/M05 A2996 RMK A01 T01341054  RH  027%=      5-min Rain = 0
KGGS 050649Z 30011KT 13/M05 A2996 RMK A01 T01341054  RH  027%=      5-min Rain = 0
KGGS 050650Z 30011KT 13/M05 A2996 RMK A01 T01341054  RH  027%=      5-min Rain = 0
KGGS 050651Z 30010KT 13/M06 A2996 RMK A01 T01341055  RH  027%=      5-min Rain = 0
KGGS 050652Z 29010KT 13/M06 A2996 RMK A01 T01331055  RH  027%=      5-min Rain = 0
KGGS 050653Z 29009KT 13/M06 A2996 RMK A01 T01321055  RH  027%=      5-min Rain = 0
KGGS 050654Z 29009KT 13/M06 A2996 RMK A01 T01311055  RH  027%=      5-min Rain = 0
KGGS 050655Z 29009KT 13/M06 A2996 RMK A01 T01311055  RH  027%=      5-min Rain = 0
KGGS 050656Z 29010KT 13/M06 A2996 RMK A01 T01301056  RH  027%=      5-min Rain = 0
KGGS 050657Z 29009KT 13/M06 A2996 RMK A01 T01291056  RH  027%=      5-min Rain = 0
KGGS 050658Z 29009KT 13/M06 A2996 RMK A01 T01281056  RH  027%=      5-min Rain = 0
KGGS 050659Z 30009KT 13/M06 A2996 RMK A01 T01271056  RH  027%=      5-min Rain = 0
KGGS 050700Z 30009KT 13/M06 A2996 RMK A01 T01261056  RH  028%=      5-min Rain = 0
KGGS 050701Z 30010KT 13/M06 A2996 RMK A01 T01251057  RH  028%=      5-min Rain = 0
KGGS 050702Z 30009KT 13/M06 A2996 RMK A01 T01251056  RH  028%=      5-min Rain = 0
KGGS 050703Z 30009KT 13/M06 A2996 RMK A01 T01251056  RH  028%=      5-min Rain = 0
KGGS 050704Z 30010KT 12/M06 A2996 RMK A01 T01241056  RH  028%=      5-min Rain = 0
KGGS 050705Z 29011KT 12/M06 A2996 RMK A01 T01231056  RH  028%=      5-min Rain = 0
KGGS 050706Z 30011KT 12/M06 A2996 RMK A01 T01241056  RH  028%=      5-min Rain = 0
KGGS 050707Z 29011KT 13/M06 A2996 RMK A01 T01261055  RH  028%=      5-min Rain = 0
KGGS 050708Z 29012KT 13/M06 A2996 RMK A01 T01271056  RH  028%=      5-min Rain = 0
KGGS 050709Z 30011KT 13/M06 A2996 RMK A01 T01281055  RH  027%=      5-min Rain = 0
KGGS 050710Z 30011KT 13/M06 A2996 RMK A01 T01281056  RH  027%=      5-min Rain = 0
KGGS 050711Z 30012KT 13/M06 A2995 RMK A01 T01281056  RH  027%=      5-min Rain = 0
KGGS 050712Z 29011KT 13/M06 A2995 RMK A01 T01291055  RH  027%=      5-min Rain = 0
KGGS 050713Z 29011KT 13/M06 A2995 RMK A01 T01301055  RH  027%=      5-min Rain = 0
KGGS 050714Z 29011KT 13/M06 A2995 RMK A01 T01291055  RH  027%=      5-min Rain = 0
KGGS 050715Z 29012G17KT 13/M06 A2995 RMK A01 T01291055  RH  027%=      5-min Rain = 0
KGGS 050716Z 29011KT 13/M06 A2995 RMK A01 T01291055  RH  027%=      5-min Rain = 0
KGGS 050717Z 29011KT 13/M06 A2995 RMK A01 T01291055  RH  027%=      5-min Rain = 0
KGGS 050718Z 30011G17KT 13/M06 A2995 RMK A01 T01301055  RH  027%=      5-min Rain = 0
KGGS 050719Z 30014G19KT 13/M06 A2995 RMK A01 T01311055  RH  027%=      5-min Rain = 0
KGGS 050720Z 30011KT 13/M06 A2995 RMK A01 T01321055  RH  027%=      5-min Rain = 0
KGGS 050721Z 30012KT 13/M06 A2995 RMK A01 T01311055  RH  027%=      5-min Rain = 0
KGGS 050722Z 30011KT 13/M06 A2995 RMK A01 T01301056  RH  027%=      5-min Rain = 0
KGGS 050723Z 30010KT 13/M06 A2995 RMK A01 T01281056  RH  027%=      5-min Rain = 0
KGGS 050724Z 30011KT 13/M06 A2995 RMK A01 T01271056  RH  028%=      5-min Rain = 0
KGGS 050725Z 30010KT 13/M06 A2995 RMK A01 T01261056  RH  028%=      5-min Rain = 0
KGGS 050726Z 30010KT 13/M06 A2995 RMK A01 T01251056  RH  028%=      5-min Rain = 0
KGGS 050727Z 30011KT 12/M06 A2996 RMK A01 T01231056  RH  028%=      5-min Rain = 0
KGGS 050728Z 30012KT 12/M06 A2996 RMK A01 T01231056  RH  028%=      5-min Rain = 0
KGGS 050729Z 30012KT 12/M06 A2996 RMK A01 T01231056  RH  028%=      5-min Rain = 0
KGGS 050730Z 30012KT 12/M06 A2996 RMK A01 T01231056  RH  028%=      5-min Rain = 0
KGGS 050731Z 30014G21KT 12/M06 A2996 RMK A01 T01241056  RH  028%=      5-min Rain = 0
KGGS 050732Z 30014G19KT 13/M06 A2996 RMK A01 T01261055  RH  028%=      5-min Rain = 0
KGGS 050733Z 29014KT 13/M06 A2996 RMK A01 T01281055  RH  028%=      5-min Rain = 0
KGGS 050734Z 29015KT 13/M06 A2996 RMK A01 T01301055  RH  027%=      5-min Rain = 0
KGGS 050735Z 29013KT 13/M06 A2996 RMK A01 T01321056  RH  027%=      5-min Rain = 0
KGGS 050736Z 29013KT 13/M06 A2996 RMK A01 T01321056  RH  027%=      5-min Rain = 0
KGGS 050737Z 29014G19KT 13/M06 A2996 RMK A01 T01321056  RH  027%=      5-min Rain = 0
KGGS 050738Z 29012KT 13/M06 A2996 RMK A01 T01311056  RH  027%=      5-min Rain = 0
KGGS 050739Z 30013KT 13/M06 A2996 RMK A01 T01301056  RH  027%=      5-min Rain = 0
KGGS 050740Z 30012KT 13/M06 A2996 RMK A01 T01301056  RH  027%=      5-min Rain = 0
KGGS 050741Z 30013KT 13/M06 A2996 RMK A01 T01301056  RH  027%=      5-min Rain = 0
KGGS 050742Z 30012KT 13/M06 A2996 RMK A01 T01301056  RH  027%=      5-min Rain = 0
KGGS 050743Z 30014KT 13/M06 A2996 RMK A01 T01301056  RH  027%=      5-min Rain = 0
KGGS 050744Z 30013KT 13/M06 A2996 RMK A01 T01301056  RH  027%=      5-min Rain = 0
KGGS 050745Z 30012KT 13/M06 A2996 RMK A01 T01301056  RH  027%=      5-min Rain = 0
KGGS 050746Z 30013G18KT 13/M06 A2996 RMK A01 T01291056  RH  027%=      5-min Rain = 0
KGGS 050747Z 29012KT 13/M06 A2996 RMK A01 T01291056  RH  027%=      5-min Rain = 0
KGGS 050748Z 30012KT 13/M06 A2996 RMK A01 T01291056  RH  027%=      5-min Rain = 0
KGGS 050749Z 29013KT 13/M06 A2996 RMK A01 T01281056  RH  027%=      5-min Rain = 0
KGGS 050750Z 30013KT 13/M06 A2996 RMK A01 T01281056  RH  027%=      5-min Rain = 0
KGGS 050751Z 30013KT 13/M06 A2996 RMK A01 T01291056  RH  027%=      5-min Rain = 0
KGGS 050752Z 30013KT 13/M06 A2996 RMK A01 T01291056  RH  027%=      5-min Rain = 0
KGGS 050753Z 30013KT 13/M06 A2996 RMK A01 T01291056  RH  027%=      5-min Rain = 0
KGGS 050754Z 30012KT 13/M06 A2996 RMK A01 T01291056  RH  027%=      5-min Rain = 0
KGGS 050755Z 30012KT 13/M06 A2996 RMK A01 T01281056  RH  027%=      5-min Rain = 0
KGGS 050756Z 30010KT 13/M06 A2996 RMK A01 T01281056  RH  027%=      5-min Rain = 0
KGGS 050757Z 30012KT 13/M06 A2996 RMK A01 T01271056  RH  027%=      5-min Rain = 0
KGGS 050758Z 30013KT 13/M06 A2996 RMK A01 T01261056  RH  028%=      5-min Rain = 0
KGGS 050759Z 30013KT 13/M06 A2996 RMK A01 T01261056  RH  028%=      5-min Rain = 0
KGGS 050800Z 29014G19KT 13/M06 A2996 RMK A01 T01261056  RH  028%=      5-min Rain = 0
KGGS 050801Z 29013KT 13/M06 A2996 RMK A01 T01261056  RH  028%=      5-min Rain = 0
KGGS 050802Z 29015G20KT 13/M06 A2996 RMK A01 T01271056  RH  027%=      5-min Rain = 0
KGGS 050803Z 29013KT 13/M06 A2996 RMK A01 T01301056  RH  027%=      5-min Rain = 0
KGGS 050804Z 29012KT 13/M06 A2996 RMK A01 T01301056  RH  027%=      5-min Rain = 0
KGGS 050805Z 29016KT 13/M06 A2996 RMK A01 T01301056  RH  027%=      5-min Rain = 0
KGGS 050806Z 29015G21KT 13/M06 A2996 RMK A01 T01301056  RH  027%=      5-min Rain = 0
KGGS 050807Z 29017KT 13/M06 A2996 RMK A01 T01301056  RH  027%=      5-min Rain = 0
KGGS 050808Z 29015G20KT 13/M06 A2996 RMK A01 T01301056  RH  027%=      5-min Rain = 0
KGGS 050809Z 30013KT 13/M06 A2996 RMK A01 T01291056  RH  027%=      5-min Rain = 0
KGGS 050810Z 29012KT 13/M06 A2996 RMK A01 T01281056  RH  027%=      5-min Rain = 0
KGGS 050811Z 29017G23KT 13/M06 A2996 RMK A01 T01271056  RH  027%=      5-min Rain = 0
KGGS 050812Z 30014G19KT 13/M06 A2996 RMK A01 T01291056  RH  027%=      5-min Rain = 0
KGGS 050813Z 30015G20KT 13/M06 A2996 RMK A01 T01301056  RH  027%=      5-min Rain = 0
KGGS 050814Z 30014KT 13/M06 A2996 RMK A01 T01301056  RH  027%=      5-min Rain = 0
KGGS 050815Z 29013KT 13/M06 A2996 RMK A01 T01291056  RH  027%=      5-min Rain = 0
KGGS 050816Z 30013KT 13/M06 A2996 RMK A01 T01291056  RH  027%=      5-min Rain = 0
KGGS 050817Z 29012KT 13/M06 A2996 RMK A01 T01271056  RH  027%=      5-min Rain = 0
KGGS 050818Z 29015KT 13/M06 A2996 RMK A01 T01271056  RH  028%=      5-min Rain = 0
KGGS 050819Z 30014KT 13/M06 A2996 RMK A01 T01271056  RH  027%=      5-min Rain = 0
KGGS 050820Z 29013KT 13/M06 A2996 RMK A01 T01271056  RH  027%=      5-min Rain = 0
KGGS 050821Z 29012G17KT 13/M06 A2996 RMK A01 T01261056  RH  028%=      5-min Rain = 0
KGGS 050822Z 29013KT 13/M06 A2996 RMK A01 T01251056  RH  028%=      5-min Rain = 0
KGGS 050823Z 29014KT 12/M06 A2996 RMK A01 T01241056  RH  028%=      5-min Rain = 0
KGGS 050824Z 29016KT 12/M06 A2996 RMK A01 T01241056  RH  028%=      5-min Rain = 0
KGGS 050825Z 29013KT 13/M06 A2997 RMK A01 T01251055  RH  028%=      5-min Rain = 0
KGGS 050826Z 29015KT 13/M06 A2996 RMK A01 T01261055  RH  028%=      5-min Rain = 0
KGGS 050827Z 29014KT 13/M06 A2996 RMK A01 T01261055  RH  028%=      5-min Rain = 0
KGGS 050828Z 29012KT 13/M06 A2996 RMK A01 T01251056  RH  028%=      5-min Rain = 0
KGGS 050829Z 29012KT 13/M06 A2996 RMK A01 T01251056  RH  028%=      5-min Rain = 0
KGGS 050830Z 29013KT 12/M06 A2996 RMK A01 T01241056  RH  028%=      5-min Rain = 0
KGGS 050831Z 29013KT 12/M06 A2997 RMK A01 T01241056  RH  028%=      5-min Rain = 0
KGGS 050832Z 29011KT 12/M06 A2996 RMK A01 T01231056  RH  028%=      5-min Rain = 0
KGGS 050833Z 29012KT 12/M06 A2996 RMK A01 T01231056  RH  028%=      5-min Rain = 0
KGGS 050834Z 29013KT 12/M06 A2996 RMK A01 T01221055  RH  029%=      5-min Rain = 0
KGGS 050835Z 29013G18KT 12/M06 A2996 RMK A01 T01211055  RH  029%=      5-min Rain = 0
KGGS 050836Z 29012KT 12/M06 A2997 RMK A01 T01211055  RH  029%=      5-min Rain = 0
KGGS 050837Z 29010G15KT 12/M06 A2996 RMK A01 T01211055  RH  029%=      5-min Rain = 0
KGGS 050838Z 29012G17KT 12/M06 A2996 RMK A01 T01201055  RH  029%=      5-min Rain = 0
KGGS 050839Z 29013G18KT 12/M06 A2997 RMK A01 T01191055  RH  029%=      5-min Rain = 0
KGGS 050840Z 29014G21KT 12/M06 A2997 RMK A01 T01201055  RH  029%=      5-min Rain = 0
KGGS 050841Z 29012KT 12/M06 A2996 RMK A01 T01201055  RH  029%=      5-min Rain = 0
KGGS 050842Z 29012KT 12/M06 A2997 RMK A01 T01201055  RH  029%=      5-min Rain = 0
KGGS 050843Z 29012G17KT 12/M06 A2997 RMK A01 T01191055  RH  029%=      5-min Rain = 0
KGGS 050844Z 29014KT 12/M06 A2997 RMK A01 T01191055  RH  029%=      5-min Rain = 0
KGGS 050845Z 29012G18KT 12/M05 A2997 RMK A01 T01181054  RH  029%=      5-min Rain = 0
KGGS 050846Z 29013G18KT 12/M05 A2997 RMK A01 T01181054  RH  030%=      5-min Rain = 0
KGGS 050847Z 29014KT 12/M05 A2997 RMK A01 T01181054  RH  030%=      5-min Rain = 0
KGGS 050848Z 29014KT 12/M05 A2997 RMK A01 T01181054  RH  030%=      5-min Rain = 0
KGGS 050849Z 29012KT 12/M05 A2997 RMK A01 T01181054  RH  030%=      5-min Rain = 0
KGGS 050850Z 29013KT 12/M05 A2997 RMK A01 T01181054  RH  030%=      5-min Rain = 0
KGGS 050851Z 29012KT 12/M05 A2997 RMK A01 T01181054  RH  030%=      5-min Rain = 0
KGGS 050852Z 29013G19KT 12/M05 A2997 RMK A01 T01171054  RH  030%=      5-min Rain = 0
KGGS 050853Z 29014KT 12/M05 A2997 RMK A01 T01161054  RH  030%=      5-min Rain = 0
KGGS 050854Z 30014KT 12/M05 A2996 RMK A01 T01171053  RH  030%=      5-min Rain = 0
KGGS 050855Z 30013KT 12/M05 A2996 RMK A01 T01171054  RH  030%=      5-min Rain = 0
KGGS 050856Z 30012KT 12/M05 A2996 RMK A01 T01171054  RH  030%=      5-min Rain = 0
KGGS 050857Z 30012KT 12/M05 A2996 RMK A01 T01161054  RH  030%=      5-min Rain = 0
KGGS 050858Z 30012KT 12/M05 A2996 RMK A01 T01151054  RH  030%=      5-min Rain = 0
KGGS 050859Z 30012KT 11/M05 A2996 RMK A01 T01141054  RH  030%=      5-min Rain = 0
KGGS 050900Z 29014G19KT 11/M05 A2996 RMK A01 T01131054  RH  030%=      5-min Rain = 0
KGGS 050901Z 30013KT 11/M05 A2997 RMK A01 T01141054  RH  030%=      5-min Rain = 0
KGGS 050902Z 30013KT 12/M05 A2997 RMK A01 T01151054  RH  030%=      5-min Rain = 0
KGGS 050903Z 30015KT 11/M05 A2997 RMK A01 T01141054  RH  030%=      5-min Rain = 0
KGGS 050904Z 30014G20KT 11/M05 A2997 RMK A01 T01141054  RH  030%=      5-min Rain = 0
KGGS 050905Z 30013KT 11/M05 A2997 RMK A01 T01141054  RH  030%=      5-min Rain = 0
KGGS 050906Z 30013KT 12/M05 A2997 RMK A01 T01151054  RH  030%=      5-min Rain = 0
KGGS 050907Z 30014KT 11/M05 A2997 RMK A01 T01141054  RH  030%=      5-min Rain = 0
KGGS 050908Z 30014KT 11/M05 A2997 RMK A01 T01131054  RH  031%=      5-min Rain = 0
KGGS 050909Z 30014KT 11/M05 A2997 RMK A01 T01131054  RH  031%=      5-min Rain = 0
KGGS 050910Z 30012KT 11/M05 A2997 RMK A01 T01131054  RH  031%=      5-min Rain = 0
KGGS 050911Z 30012KT 11/M05 A2997 RMK A01 T01121054  RH  031%=      5-min Rain = 0
KGGS 050912Z 30013G18KT 11/M05 A2997 RMK A01 T01111054  RH  031%=      5-min Rain = 0
KGGS 050913Z 29014KT 11/M05 A2997 RMK A01 T01111054  RH  031%=      5-min Rain = 0
KGGS 050914Z 30013G18KT 11/M05 A2997 RMK A01 T01121054  RH  031%=      5-min Rain = 0
KGGS 050915Z 29014G21KT 11/M05 A2997 RMK A01 T01121054  RH  031%=      5-min Rain = 0
KGGS 050916Z 30016G21KT 11/M05 A2997 RMK A01 T01121054  RH  031%=      5-min Rain = 0
KGGS 050917Z 30014KT 11/M05 A2997 RMK A01 T01121054  RH  031%=      5-min Rain = 0
KGGS 050918Z 30013G18KT 11/M05 A2997 RMK A01 T01111054  RH  031%=      5-min Rain = 0
KGGS 050919Z 30016KT 11/M05 A2997 RMK A01 T01111054  RH  031%=      5-min Rain = 0
KGGS 050920Z 29015KT 11/M05 A2997 RMK A01 T01111054  RH  031%=      5-min Rain = 0
KGGS 050921Z 29014KT 11/M05 A2997 RMK A01 T01111054  RH  031%=      5-min Rain = 0
KGGS 050922Z 30015KT 11/M05 A2997 RMK A01 T01111054  RH  031%=      5-min Rain = 0
KGGS 050923Z 30012G18KT 11/M05 A2997 RMK A01 T01101054  RH  031%=      5-min Rain = 0
KGGS 050924Z 30015KT 11/M05 A2997 RMK A01 T01091054  RH  031%=      5-min Rain = 0
KGGS 050925Z 30015G20KT 11/M05 A2997 RMK A01 T01091054  RH  031%=      5-min Rain = 0
KGGS 050926Z 30013KT 11/M05 A2997 RMK A01 T01091054  RH  031%=      5-min Rain = 0
KGGS 050927Z 30014KT 11/M05 A2997 RMK A01 T01091054  RH  031%=      5-min Rain = 0
KGGS 050928Z 30013G20KT 11/M05 A2997 RMK A01 T01081054  RH  032%=      5-min Rain = 0
KGGS 050929Z 30013KT 11/M05 A2997 RMK A01 T01081054  RH  032%=      5-min Rain = 0
KGGS 050930Z 30013KT 11/M05 A2997 RMK A01 T01071054  RH  032%=      5-min Rain = 0
KGGS 050931Z 30012KT 11/M05 A2997 RMK A01 T01071054  RH  032%=      5-min Rain = 0
KGGS 050932Z 30012KT 11/M05 A2997 RMK A01 T01071054  RH  032%=      5-min Rain = 0
KGGS 050933Z 30011G16KT 11/M05 A2997 RMK A01 T01071054  RH  032%=      5-min Rain = 0
KGGS 050934Z 30012KT 11/M05 A2997 RMK A01 T01071054  RH  032%=      5-min Rain = 0
KGGS 050935Z 30012KT 11/M05 A2997 RMK A01 T01061054  RH  032%=      5-min Rain = 0
KGGS 050936Z 30013G18KT 11/M05 A2997 RMK A01 T01051054  RH  032%=      5-min Rain = 0
KGGS 050937Z 30013KT 11/M05 A2997 RMK A01 T01051054  RH  032%=      5-min Rain = 0
KGGS 050938Z 31013KT 11/M05 A2997 RMK A01 T01051053  RH  032%=      5-min Rain = 0
KGGS 050939Z 30014G19KT 11/M05 A2998 RMK A01 T01061053  RH  032%=      5-min Rain = 0
KGGS 050940Z 30015KT 11/M05 A2998 RMK A01 T01061053  RH  032%=      5-min Rain = 0
KGGS 050941Z 30013KT 11/M05 A2998 RMK A01 T01061053  RH  032%=      5-min Rain = 0
KGGS 050942Z 31013G18KT 11/M05 A2998 RMK A01 T01051053  RH  032%=      5-min Rain = 0
KGGS 050943Z 31014G21KT 10/M05 A2998 RMK A01 T01041053  RH  033%=      5-min Rain = 0
KGGS 050944Z 31013KT 10/M05 A2998 RMK A01 T01041053  RH  033%=      5-min Rain = 0
KGGS 050945Z 31012KT 10/M05 A2998 RMK A01 T01041053  RH  033%=      5-min Rain = 0
KGGS 050946Z 30013KT 10/M05 A2998 RMK A01 T01031053  RH  033%=      5-min Rain = 0
KGGS 050947Z 31012KT 10/M05 A2998 RMK A01 T01021053  RH  033%=      5-min Rain = 0
KGGS 050948Z 30013KT 10/M05 A2998 RMK A01 T01021053  RH  033%=      5-min Rain = 0
KGGS 050949Z 30013KT 10/M05 A2998 RMK A01 T01021052  RH  033%=      5-min Rain = 0
KGGS 050950Z 30012G17KT 10/M05 A2998 RMK A01 T01021052  RH  033%=      5-min Rain = 0
KGGS 050951Z 30013KT 10/M05 A2998 RMK A01 T01021052  RH  033%=      5-min Rain = 0
KGGS 050952Z 30013KT 10/M05 A2998 RMK A01 T01021052  RH  033%=      5-min Rain = 0
KGGS 050953Z 30011KT 10/M05 A2998 RMK A01 T01021052  RH  033%=      5-min Rain = 0
KGGS 050954Z 30011KT 10/M05 A2998 RMK A01 T01001053  RH  034%=      5-min Rain = 0
KGGS 050955Z 30011KT 10/M05 A2998 RMK A01 T00991053  RH  034%=      5-min Rain = 0
KGGS 050956Z 30010KT 10/M05 A2998 RMK A01 T00981053  RH  034%=      5-min Rain = 0
KGGS 050957Z 30011KT 10/M05 A2998 RMK A01 T00971053  RH  034%=      5-min Rain = 0
KGGS 050958Z 30011G16KT 10/M05 A2998 RMK A01 T00971052  RH  035%=      5-min Rain = 0
KGGS 050959Z 30012KT 10/M05 A2998 RMK A01 T00971052  RH  035%=      5-min Rain = 0
KGGS 051000Z 30010KT 10/M05 A2998 RMK A01 T00971052  RH  035%=      5-min Rain = 0
KGGS 051001Z 30012KT 10/M05 A2998 RMK A01 T00971052  RH  035%=      5-min Rain = 0
KGGS 051002Z 30011KT 10/M05 A2998 RMK A01 T00971051  RH  035%=      5-min Rain = 0
KGGS 051003Z 30011KT 10/M05 A2998 RMK A01 T00971051  RH  035%=      5-min Rain = 0
KGGS 051004Z 31012KT 10/M05 A2998 RMK A01 T00971050  RH  035%=      5-min Rain = 0
KGGS 051005Z 31012KT 10/M05 A2998 RMK A01 T00971049  RH  035%=      5-min Rain = 0
KGGS 051006Z 30012G17KT 10/M05 A2998 RMK A01 T00981049  RH  035%=      5-min Rain = 0
KGGS 051007Z 30014KT 10/M05 A2998 RMK A01 T00981048  RH  035%=      5-min Rain = 0
KGGS 051008Z 31015G20KT 10/M05 A2998 RMK A01 T01001046  RH  035%=      5-min Rain = 0
KGGS 051009Z 30015G20KT 10/M05 A2998 RMK A01 T01011046  RH  035%=      5-min Rain = 0
KGGS 051010Z 31015KT 10/M05 A2998 RMK A01 T01021046  RH  035%=      5-min Rain = 0
KGGS 051011Z 31014KT 10/M05 A2998 RMK A01 T01021045  RH  035%=      5-min Rain = 0
KGGS 051012Z 31014KT 10/M04 A2998 RMK A01 T01011043  RH  036%=      5-min Rain = 0
KGGS 051013Z 31014G19KT 10/M04 A2998 RMK A01 T01011042  RH  036%=      5-min Rain = 0
KGGS 051014Z 30014KT 10/M04 A2998 RMK A01 T01001041  RH  037%=      5-min Rain = 0
KGGS 051015Z 31013KT 10/M04 A2998 RMK A01 T01001040  RH  037%=      5-min Rain = 0
KGGS 051016Z 31013G18KT 10/M04 A2998 RMK A01 T01001040  RH  037%=      5-min Rain = 0
KGGS 051017Z 31013KT 10/M04 A2998 RMK A01 T01001039  RH  037%=      5-min Rain = 0
KGGS 051018Z 30012KT 10/M04 A2998 RMK A01 T01001038  RH  038%=      5-min Rain = 0
KGGS 051019Z 30013KT 10/M04 A2998 RMK A01 T00991039  RH  037%=      5-min Rain = 0
KGGS 051020Z 30012KT 10/M04 A2998 RMK A01 T00991039  RH  038%=      5-min Rain = 0
KGGS 051021Z 30013KT 10/M04 A2998 RMK A01 T00991039  RH  038%=      5-min Rain = 0
KGGS 051022Z 30011KT 10/M04 A2998 RMK A01 T00981039  RH  038%=      5-min Rain = 0
KGGS 051023Z 30011KT 10/M04 A2998 RMK A01 T00971039  RH  038%=      5-min Rain = 0
KGGS 051024Z 30011KT 10/M04 A2998 RMK A01 T00961039  RH  038%=      5-min Rain = 0
KGGS 051025Z 30013KT 10/M04 A2998 RMK A01 T00961038  RH  039%=      5-min Rain = 0
KGGS 051026Z 30011KT 10/M04 A2998 RMK A01 T00971038  RH  039%=      5-min Rain = 0
KGGS 051027Z 30011KT 10/M04 A2998 RMK A01 T00971038  RH  038%=      5-min Rain = 0
KGGS 051028Z 31011KT 10/M04 A2998 RMK A01 T00961037  RH  039%=      5-min Rain = 0
KGGS 051029Z 31012G18KT 10/M04 A2998 RMK A01 T00971035  RH  039%=      5-min Rain = 0
KGGS 051030Z 31013KT 10/M03 A2998 RMK A01 T00981032  RH  040%=      5-min Rain = 0
KGGS 051031Z 31011G19KT 10/M03 A2998 RMK A01 T01001032  RH  039%=      5-min Rain = 0
KGGS 051032Z 31013G18KT 10/M03 A2998 RMK A01 T01001031  RH  040%=      5-min Rain = 0
KGGS 051033Z 31013KT 10/M03 A2998 RMK A01 T01011030  RH  040%=      5-min Rain = 0
KGGS 051034Z 31012KT 10/M03 A2998 RMK A01 T01011029  RH  040%=      5-min Rain = 0
KGGS 051035Z 31013KT 10/M03 A2998 RMK A01 T01021029  RH  040%=      5-min Rain = 0
KGGS 051036Z 31016KT 10/M03 A2998 RMK A01 T01031028  RH  040%=      5-min Rain = 0
KGGS 051037Z 31014G19KT 10/M03 A2998 RMK A01 T01041027  RH  040%=      5-min Rain = 0
KGGS 051038Z 31013KT 10/M03 A2998 RMK A01 T01041027  RH  040%=      5-min Rain = 0
KGGS 051039Z 31014KT 10/M03 A2998 RMK A01 T01031027  RH  040%=      5-min Rain = 0
KGGS 051040Z 31014KT 10/M03 A2998 RMK A01 T01031027  RH  040%=      5-min Rain = 0
KGGS 051041Z 31014KT 10/M03 A2998 RMK A01 T01031028  RH  040%=      5-min Rain = 0
KGGS 051042Z 31014KT 10/M03 A2998 RMK A01 T01021028  RH  040%=      5-min Rain = 0
KGGS 051043Z 31012KT 10/M03 A2998 RMK A01 T01031028  RH  040%=      5-min Rain = 0
KGGS 051044Z 31013G18KT 10/M03 A2998 RMK A01 T01031028  RH  040%=      5-min Rain = 0
KGGS 051045Z 30011KT 10/M03 A2998 RMK A01 T01031029  RH  040%=      5-min Rain = 0
KGGS 051046Z 30011KT 10/M03 A2998 RMK A01 T01021030  RH  040%=      5-min Rain = 0
KGGS 051047Z 30012KT 10/M03 A2999 RMK A01 T01001031  RH  040%=      5-min Rain = 0
KGGS 051048Z 30013KT 10/M03 A2999 RMK A01 T01001031  RH  040%=      5-min Rain = 0
KGGS 051049Z 31012G17KT 10/M03 A2999 RMK A01 T00991032  RH  040%=      5-min Rain = 0
KGGS 051050Z 31013KT 10/M03 A2999 RMK A01 T00991032  RH  040%=      5-min Rain = 0
KGGS 051051Z 31013KT 10/M03 A2999 RMK A01 T00991033  RH  039%=      5-min Rain = 0
KGGS 051052Z 31013KT 10/M03 A2999 RMK A01 T00991034  RH  039%=      5-min Rain = 0
KGGS 051053Z 31013KT 10/M03 A2999 RMK A01 T00991034  RH  039%=      5-min Rain = 0
KGGS 051054Z 31015G21KT 10/M04 A2999 RMK A01 T00981035  RH  039%=      5-min Rain = 0
KGGS 051055Z 31015G20KT 10/M03 A2999 RMK A01 T00991034  RH  039%=      5-min Rain = 0
KGGS 051056Z 31013KT 10/M03 A2999 RMK A01 T01001034  RH  039%=      5-min Rain = 0
KGGS 051057Z 31013KT 10/M04 A2999 RMK A01 T01001035  RH  039%=      5-min Rain = 0
KGGS 051058Z 31013G19KT 10/M04 A2999 RMK A01 T00991035  RH  039%=      5-min Rain = 0
KGGS 051059Z 31013KT 10/M04 A2999 RMK A01 T00981036  RH  039%=      5-min Rain = 0
KGGS 051100Z 31014KT 10/M04 A2999 RMK A01 T00971037  RH  039%=      5-min Rain = 0
KGGS 051101Z 30015KT 10/M04 A2999 RMK A01 T00971037  RH  039%=      5-min Rain = 0
KGGS 051102Z 30014G19KT 10/M04 A2999 RMK A01 T00971036  RH  039%=      5-min Rain = 0
KGGS 051103Z 30013KT 10/M04 A2999 RMK A01 T00971037  RH  039%=      5-min Rain = 0
KGGS 051104Z 31015KT 10/M04 A2999 RMK A01 T00971037  RH  039%=      5-min Rain = 0
KGGS 051105Z 31014KT 10/M04 A2999 RMK A01 T00961037  RH  039%=      5-min Rain = 0
KGGS 051106Z 30013KT 10/M04 A2999 RMK A01 T00961037  RH  039%=      5-min Rain = 0
KGGS 051107Z 30015KT 10/M04 A2999 RMK A01 T00961037  RH  039%=      5-min Rain = 0
KGGS 051108Z 31014G19KT 10/M04 A30 RMK A01 T00951037  RH  039%=      5-min Rain = 0
KGGS 051109Z 31014KT 10/M04 A30 RMK A01 T00951037  RH  039%=      5-min Rain = 0
KGGS 051110Z 31013KT 10/M04 A30 RMK A01 T00951037  RH  039%=      5-min Rain = 0
KGGS 051111Z 31014KT 10/M04 A30 RMK A01 T00951037  RH  039%=      5-min Rain = 0
KGGS 051112Z 30014G20KT 09/M04 A30 RMK A01 T00941037  RH  040%=      5-min Rain = 0
KGGS 051113Z 30013KT 09/M04 A30 RMK A01 T00941037  RH  040%=      5-min Rain = 0
KGGS 051114Z 31013KT 09/M04 A30 RMK A01 T00941037  RH  040%=      5-min Rain = 0
KGGS 051115Z 30014G19KT 09/M04 A30 RMK A01 T00941036  RH  040%=      5-min Rain = 0
KGGS 051116Z 31015KT 09/M04 A30 RMK A01 T00941035  RH  040%=      5-min Rain = 0
KGGS 051117Z 31015KT 09/M04 A30 RMK A01 T00941035  RH  040%=      5-min Rain = 0
KGGS 051118Z 31014KT 10/M03 A30 RMK A01 T00951034  RH  040%=      5-min Rain = 0
KGGS 051119Z 31015G20KT 10/M03 A30 RMK A01 T00951034  RH  040%=      5-min Rain = 0
KGGS 051120Z 31014KT 10/M03 A3001 RMK A01 T00951033  RH  041%=      5-min Rain = 0
KGGS 051121Z 31014KT 10/M03 A30 RMK A01 T00951033  RH  040%=      5-min Rain = 0
KGGS 051122Z 31013G18KT 09/M03 A3001 RMK A01 T00941032  RH  041%=      5-min Rain = 0
KGGS 051123Z 31014KT 09/M03 A3001 RMK A01 T00941032  RH  041%=      5-min Rain = 0
KGGS 051124Z 31013KT 09/M03 A3001 RMK A01 T00941031  RH  041%=      5-min Rain = 0
KGGS 051125Z 31013KT 10/M03 A3001 RMK A01 T00951030  RH  041%=      5-min Rain = 0
KGGS 051126Z 31016G21KT 10/M03 A3001 RMK A01 T00951029  RH  042%=      5-min Rain = 0
KGGS 051127Z 31013KT 10/M03 A3001 RMK A01 T00971027  RH  042%=      5-min Rain = 0
KGGS 051128Z 31013KT 10/M03 A3001 RMK A01 T00971027  RH  042%=      5-min Rain = 0
KGGS 051129Z 32015KT 10/M03 A3001 RMK A01 T00971026  RH  042%=      5-min Rain = 0
KGGS 051130Z 32016G22KT 10/M02 A3001 RMK A01 T00981024  RH  042%=      5-min Rain = 0
KGGS 051131Z 31016G23KT 10/M02 A3001 RMK A01 T00991023  RH  042%=      5-min Rain = 0
KGGS 051132Z 32017G22KT 10/M02 A3001 RMK A01 T01011022  RH  042%=      5-min Rain = 0
KGGS 051133Z 31015G20KT 10/M02 A3001 RMK A01 T01011022  RH  042%=      5-min Rain = 0
KGGS 051134Z 31016G21KT 10/M02 A3001 RMK A01 T01021022  RH  042%=      5-min Rain = 0
KGGS 051135Z 31013G19KT 10/M02 A3001 RMK A01 T01011023  RH  042%=      5-min Rain = 0
KGGS 051136Z 31016G21KT 10/M02 A3001 RMK A01 T01001023  RH  042%=      5-min Rain = 0
KGGS 051137Z 31016G21KT 10/M02 A3001 RMK A01 T01001023  RH  042%=      5-min Rain = 0
KGGS 051138Z 31014KT 10/M02 A3001 RMK A01 T01001022  RH  042%=      5-min Rain = 0
KGGS 051139Z 31013G19KT 10/M02 A3001 RMK A01 T01001023  RH  042%=      5-min Rain = 0
KGGS 051140Z 31013KT 10/M02 A3001 RMK A01 T00981023  RH  043%=      5-min Rain = 0
KGGS 051141Z 31015KT 10/M02 A3001 RMK A01 T00981023  RH  043%=      5-min Rain = 0
KGGS 051142Z 31015G20KT 10/M02 A3001 RMK A01 T00971022  RH  043%=      5-min Rain = 0
KGGS 051143Z 31017KT 10/M02 A3001 RMK A01 T00981022  RH  043%=      5-min Rain = 0
KGGS 051144Z 31014KT 10/M02 A3001 RMK A01 T00981022  RH  043%=      5-min Rain = 0
KGGS 051145Z 31014G19KT 10/M02 A3001 RMK A01 T00971022  RH  043%=      5-min Rain = 0
KGGS 051146Z 32014KT 10/M02 A3001 RMK A01 T00971022  RH  043%=      5-min Rain = 0
KGGS 051147Z 32013KT 10/M02 A3001 RMK A01 T00961023  RH  043%=      5-min Rain = 0
KGGS 051148Z 32016KT 10/M02 A3002 RMK A01 T00961023  RH  043%=      5-min Rain = 0
KGGS 051149Z 32015KT 10/M02 A3002 RMK A01 T00951023  RH  043%=      5-min Rain = 0
KGGS 051150Z 32014KT 10/M02 A3002 RMK A01 T00951024  RH  043%=      5-min Rain = 0
KGGS 051151Z 32015KT 09/M02 A3002 RMK A01 T00941024  RH  043%=      5-min Rain = 0
KGGS 051152Z 31013KT 09/M02 A3002 RMK A01 T00941024  RH  044%=      5-min Rain = 0
KGGS 051153Z 32016G23KT 09/M02 A3002 RMK A01 T00931024  RH  044%=      5-min Rain = 0
KGGS 051154Z 32015G20KT 09/M02 A3002 RMK A01 T00931024  RH  044%=      5-min Rain = 0
KGGS 051155Z 32014KT 09/M02 A3002 RMK A01 T00931024  RH  044%=      5-min Rain = 0
KGGS 051156Z 32015KT 09/M03 A3002 RMK A01 T00931025  RH  044%=      5-min Rain = 0
KGGS 051157Z 32014KT 09/M02 A3002 RMK A01 T00921024  RH  044%=      5-min Rain = 0
KGGS 051158Z 32014KT 09/M02 A3002 RMK A01 T00911024  RH  044%=      5-min Rain = 0
KGGS 051159Z 32014KT 09/M03 A3002 RMK A01 T00901025  RH  045%=      5-min Rain = 0
KGGS 051200Z 32015G22KT 09/M02 A3002 RMK A01 T00901024  RH  045%=      5-min Rain = 0
KGGS 051201Z 32016KT 09/M02 A3002 RMK A01 T00891024  RH  045%=      5-min Rain = 0
KGGS 051202Z 32014KT 09/M02 A3002 RMK A01 T00891024  RH  045%=      5-min Rain = 0
KGGS 051203Z 32015KT 09/M02 A3002 RMK A01 T00891024  RH  045%=      5-min Rain = 0
KGGS 051204Z 32016KT 09/M02 A3002 RMK A01 T00891023  RH  045%=      5-min Rain = 0
KGGS 051205Z 33015KT 09/M02 A3002 RMK A01 T00891023  RH  045%=      5-min Rain = 0
KGGS 051206Z 33014G20KT 09/M02 A3002 RMK A01 T00891023  RH  045%=      5-min Rain = 0
KGGS 051207Z 33016KT 09/M02 A3002 RMK A01 T00881022  RH  046%=      5-min Rain = 0
KGGS 051208Z 33017KT 09/M02 A3002 RMK A01 T00881021  RH  046%=      5-min Rain = 0
KGGS 051209Z 32014G19KT 09/M02 A3002 RMK A01 T00891021  RH  046%=      5-min Rain = 0
KGGS 051210Z 33017G24KT 09/M02 A3002 RMK A01 T00881021  RH  046%=      5-min Rain = 0
KGGS 051211Z 33017G22KT 09/M02 A3002 RMK A01 T00881019  RH  047%=      5-min Rain = 0
KGGS 051212Z 33014G20KT 09/M02 A3002 RMK A01 T00891018  RH  047%=      5-min Rain = 0
KGGS 051213Z 33016KT 09/M02 A3002 RMK A01 T00891018  RH  047%=      5-min Rain = 0
KGGS 051214Z 33014G20KT 09/M02 A3002 RMK A01 T00881018  RH  047%=      5-min Rain = 0
KGGS 051215Z 32017KT 09/M02 A3002 RMK A01 T00881017  RH  048%=      5-min Rain = 0
KGGS 051216Z 33015G20KT 09/M02 A3002 RMK A01 T00881016  RH  048%=      5-min Rain = 0
KGGS 051217Z 33017G22KT 09/M02 A3002 RMK A01 T00881016  RH  048%=      5-min Rain = 0
KGGS 051218Z 33017KT 09/M02 A3002 RMK A01 T00881015  RH  048%=      5-min Rain = 0
KGGS 051219Z 32015KT 09/M01 A3002 RMK A01 T00881014  RH  049%=      5-min Rain = 0
KGGS 051220Z 33016KT 09/M01 A3002 RMK A01 T00881013  RH  049%=      5-min Rain = 0
KGGS 051221Z 33016G23KT 09/M01 A3002 RMK A01 T00881012  RH  049%=      5-min Rain = 0
KGGS 051222Z 33018G26KT 09/M01 A3002 RMK A01 T00891011  RH  050%=      5-min Rain = 0
KGGS 051223Z 32016G22KT 09/M01 A3002 RMK A01 T00901010  RH  050%=      5-min Rain = 0
KGGS 051224Z 32019KT 09/M01 A3002 RMK A01 T00901010  RH  049%=      5-min Rain = 0
KGGS 051225Z 32016G21KT 09/M01 A3002 RMK A01 T00911010  RH  049%=      5-min Rain = 0
KGGS 051226Z 32017G23KT 09/M01 A3002 RMK A01 T00901009  RH  050%=      5-min Rain = 0
KGGS 051227Z 32017G22KT 09/M01 A3003 RMK A01 T00901009  RH  050%=      5-min Rain = 0
KGGS 051228Z 32016KT 09/M01 A3003 RMK A01 T00911009  RH  050%=      5-min Rain = 0
KGGS 051229Z 32016KT 09/M01 A3003 RMK A01 T00901009  RH  050%=      5-min Rain = 0
KGGS 051230Z 32016G22KT 09/M01 A3003 RMK A01 T00901008  RH  050%=      5-min Rain = 0
KGGS 051231Z 32016G21KT 09/M01 A3003 RMK A01 T00901008  RH  050%=      5-min Rain = 0
KGGS 051232Z 32015KT 09/M01 A3003 RMK A01 T00901008  RH  050%=      5-min Rain = 0
KGGS 051233Z 32017KT 09/M01 A3003 RMK A01 T00891009  RH  050%=      5-min Rain = 0
KGGS 051234Z 32015G20KT 09/M01 A3003 RMK A01 T00891009  RH  050%=      5-min Rain = 0
KGGS 051235Z 32014KT 09/M01 A3003 RMK A01 T00891009  RH  050%=      5-min Rain = 0
KGGS 051236Z 32014G19KT 09/M01 A3003 RMK A01 T00891009  RH  050%=      5-min Rain = 0
KGGS 051237Z 32014KT 09/M01 A3003 RMK A01 T00881009  RH  050%=      5-min Rain = 0
KGGS 051238Z 32015KT 09/M01 A3003 RMK A01 T00881009  RH  050%=      5-min Rain = 0
KGGS 051239Z 32014KT 09/M01 A3003 RMK A01 T00891009  RH  050%=      5-min Rain = 0
KGGS 051240Z 32013KT 09/M01 A3003 RMK A01 T00891009  RH  050%=      5-min Rain = 0
KGGS 051241Z 32015G20KT 09/M01 A3003 RMK A01 T00901009  RH  050%=      5-min Rain = 0
KGGS 051242Z 32014G19KT 09/M01 A3003 RMK A01 T00901009  RH  050%=      5-min Rain = 0
KGGS 051243Z 32013KT 09/M01 A3003 RMK A01 T00901009  RH  050%=      5-min Rain = 0
KGGS 051244Z 32015KT 09/M01 A3003 RMK A01 T00891008  RH  050%=      5-min Rain = 0
KGGS 051245Z 32013KT 09/M01 A3003 RMK A01 T00891008  RH  050%=      5-min Rain = 0
KGGS 051246Z 32013KT 09/M01 A3003 RMK A01 T00891008  RH  050%=      5-min Rain = 0
KGGS 051247Z 32014G19KT 09/M01 A3003 RMK A01 T00891008  RH  051%=      5-min Rain = 0
KGGS 051248Z 32016G21KT 09/M01 A3003 RMK A01 T00891007  RH  051%=      5-min Rain = 0
KGGS 051249Z 32015G21KT 09/M01 A3003 RMK A01 T00901006  RH  051%=      5-min Rain = 0
KGGS 051250Z 32015KT 09/M01 A3003 RMK A01 T00901006  RH  051%=      5-min Rain = 0
KGGS 051251Z 32014G19KT 09/M01 A3003 RMK A01 T00901006  RH  051%=      5-min Rain = 0
KGGS 051252Z 32016G21KT 09/M01 A3003 RMK A01 T00901005  RH  051%=      5-min Rain = 0
KGGS 051253Z 32016KT 09/M00 A3003 RMK A01 T00901004  RH  052%=      5-min Rain = 0
KGGS 051254Z 32015KT 09/M00 A3003 RMK A01 T00901004  RH  052%=      5-min Rain = 0
KGGS 051255Z 32014KT 09/M00 A3003 RMK A01 T00901004  RH  052%=      5-min Rain = 0
KGGS 051256Z 32016G21KT 09/M00 A3003 RMK A01 T00901004  RH  052%=      5-min Rain = 0
KGGS 051257Z 32014KT 09/M00 A3003 RMK A01 T00901003  RH  052%=      5-min Rain = 0
KGGS 051258Z 32014KT 09/M00 A3003 RMK A01 T00901003  RH  052%=      5-min Rain = 0
KGGS 051259Z 32015KT 09/M00 A3003 RMK A01 T00901004  RH  052%=      5-min Rain = 0
KGGS 051300Z 32015KT 09/M00 A3003 RMK A01 T00891003  RH  052%=      5-min Rain = 0
KGGS 051301Z 32014KT 09/M00 A3004 RMK A01 T00891003  RH  052%=      5-min Rain = 0
KGGS 051302Z 32015G21KT 09/M00 A3004 RMK A01 T00891003  RH  053%=      5-min Rain = 0
KGGS 051303Z 32015KT 09/M00 A3004 RMK A01 T00891003  RH  053%=      5-min Rain = 0
KGGS 051304Z 32016KT 09/M00 A3004 RMK A01 T00891003  RH  053%=      5-min Rain = 0
KGGS 051305Z 32015KT 09/M00 A3004 RMK A01 T00891003  RH  053%=      5-min Rain = 0
KGGS 051306Z 32013KT 09/M00 A3004 RMK A01 T00891003  RH  053%=      5-min Rain = 0
KGGS 051307Z 32012KT 09/M00 A3004 RMK A01 T00881003  RH  053%=      5-min Rain = 0
KGGS 051308Z 32013KT 09/M00 A3003 RMK A01 T00881003  RH  053%=      5-min Rain = 0
KGGS 051309Z 32014KT 09/M00 A3004 RMK A01 T00871003  RH  053%=      5-min Rain = 0
KGGS 051310Z 32013KT 09/M00 A3004 RMK A01 T00871003  RH  053%=      5-min Rain = 0
KGGS 051311Z 32012KT 09/M00 A3004 RMK A01 T00871003  RH  053%=      5-min Rain = 0
KGGS 051312Z 31014G19KT 09/M00 A3004 RMK A01 T00871003  RH  053%=      5-min Rain = 0
KGGS 051313Z 32013G18KT 09/M00 A3004 RMK A01 T00881002  RH  053%=      5-min Rain = 0
KGGS 051314Z 31014KT 09/M00 A3004 RMK A01 T00881003  RH  053%=      5-min Rain = 0
KGGS 051315Z 32013KT 09/M00 A3004 RMK A01 T00891003  RH  053%=      5-min Rain = 0
KGGS 051316Z 32014KT 09/M00 A3004 RMK A01 T00891003  RH  053%=      5-min Rain = 0
KGGS 051317Z 32014KT 09/M00 A3004 RMK A01 T00891003  RH  053%=      5-min Rain = 0
KGGS 051318Z 32013G18KT 09/M00 A3004 RMK A01 T00891003  RH  053%=      5-min Rain = 0
KGGS 051319Z 32013KT 09/M00 A3004 RMK A01 T00891003  RH  053%=      5-min Rain = 0
KGGS 051320Z 32012KT 09/M00 A3004 RMK A01 T00891003  RH  053%=      5-min Rain = 0
KGGS 051321Z 31014G19KT 09/M00 A3004 RMK A01 T00891002  RH  053%=      5-min Rain = 0
KGGS 051322Z 31013KT 09/M00 A3004 RMK A01 T00891002  RH  053%=      5-min Rain = 0
KGGS 051323Z 32012KT 09/M00 A3004 RMK A01 T00891002  RH  053%=      5-min Rain = 0
KGGS 051324Z 32015G20KT 09/M00 A3004 RMK A01 T00891002  RH  053%=      5-min Rain = 0
KGGS 051325Z 32016G21KT 09/00 A3004 RMK A01 T00890000  RH  054%=      5-min Rain = 0
KGGS 051326Z 32016G23KT 09/00 A3004 RMK A01 T00910001  RH  053%=      5-min Rain = 0
KGGS 051327Z 32016KT 09/00 A3004 RMK A01 T00910001  RH  053%=      5-min Rain = 0
KGGS 051328Z 32014KT 09/00 A3004 RMK A01 T00920001  RH  053%=      5-min Rain = 0
KGGS 051329Z 31013G18KT 09/00 A3004 RMK A01 T00920001  RH  053%=      5-min Rain = 0
KGGS 051330Z 32013KT 09/00 A3004 RMK A01 T00910001  RH  053%=      5-min Rain = 0
KGGS 051331Z 32013KT 09/00 A3004 RMK A01 T00910001  RH  053%=      5-min Rain = 0
KGGS 051332Z 32015KT 09/00 A3004 RMK A01 T00910002  RH  054%=      5-min Rain = 0
KGGS 051333Z 32014G19KT 09/00 A3004 RMK A01 T00910002  RH  054%=      5-min Rain = 0
KGGS 051334Z 32016KT 09/00 A3004 RMK A01 T00910002  RH  054%=      5-min Rain = 0
KGGS 051335Z 32016KT 09/00 A3004 RMK A01 T00920003  RH  054%=      5-min Rain = 0
KGGS 051336Z 31014G19KT 09/00 A3004 RMK A01 T00920003  RH  054%=      5-min Rain = 0
KGGS 051337Z 31015G20KT 09/00 A3004 RMK A01 T00920003  RH  054%=      5-min Rain = 0
KGGS 051338Z 31013G18KT 09/00 A3004 RMK A01 T00930004  RH  054%=      5-min Rain = 0
KGGS 051339Z 31013KT 09/00 A3004 RMK A01 T00930004  RH  054%=      5-min Rain = 0
KGGS 051340Z 31012G17KT 09/00 A3004 RMK A01 T00930004  RH  054%=      5-min Rain = 0
KGGS 051341Z 31013G18KT 09/01 A3004 RMK A01 T00930005  RH  054%=      5-min Rain = 0
KGGS 051342Z 31015G21KT 09/01 A3004 RMK A01 T00940005  RH  054%=      5-min Rain = 0
KGGS 051343Z 32014KT 09/01 A3004 RMK A01 T00940005  RH  054%=      5-min Rain = 0
KGGS 051344Z 32015G20KT 10/01 A3004 RMK A01 T00950005  RH  054%=      5-min Rain = 0
KGGS 051345Z 32013KT 10/01 A3004 RMK A01 T00950006  RH  054%=      5-min Rain = 0
KGGS 051346Z 31014KT 10/01 A3004 RMK A01 T00950006  RH  054%=      5-min Rain = 0
KGGS 051347Z 32015KT 10/01 A3005 RMK A01 T00950006  RH  054%=      5-min Rain = 0
KGGS 051348Z 31014KT 10/01 A3005 RMK A01 T00960006  RH  054%=      5-min Rain = 0
KGGS 051349Z 31015G20KT 10/01 A3005 RMK A01 T00960007  RH  054%=      5-min Rain = 0
KGGS 051350Z 31016KT 10/01 A3005 RMK A01 T00970007  RH  054%=      5-min Rain = 0
KGGS 051351Z 31014KT 10/01 A3005 RMK A01 T00970007  RH  053%=      5-min Rain = 0
KGGS 051352Z 31012KT 10/01 A3005 RMK A01 T00980007  RH  053%=      5-min Rain = 0
KGGS 051353Z 31014KT 10/01 A3005 RMK A01 T00980007  RH  053%=      5-min Rain = 0
KGGS 051354Z 31014KT 10/01 A3005 RMK A01 T00980008  RH  053%=      5-min Rain = 0
KGGS 051355Z 31016G21KT 10/01 A3005 RMK A01 T00990008  RH  053%=      5-min Rain = 0
KGGS 051356Z 31013KT 10/01 A3005 RMK A01 T00990008  RH  053%=      5-min Rain = 0
KGGS 051357Z 31015KT 10/01 A3005 RMK A01 T00990008  RH  053%=      5-min Rain = 0
KGGS 051358Z 31016G23KT 10/01 A3005 RMK A01 T01000009  RH  053%=      5-min Rain = 0
KGGS 051359Z 31017G22KT 10/01 A3005 RMK A01 T01000009  RH  053%=      5-min Rain = 0
KGGS 051400Z 31013KT 10/01 A3005 RMK A01 T01010010  RH  053%=      5-min Rain = 0
KGGS 051401Z 31014KT 10/01 A3005 RMK A01 T01010010  RH  053%=      5-min Rain = 0
KGGS 051402Z 31014G19KT 10/01 A3005 RMK A01 T01020010  RH  053%=      5-min Rain = 0
KGGS 051403Z 32016G23KT 10/01 A3005 RMK A01 T01020011  RH  053%=      5-min Rain = 0
KGGS 051404Z 31018G24KT 10/01 A3006 RMK A01 T01030011  RH  053%=      5-min Rain = 0
KGGS 051405Z 31019G28KT 10/01 A3006 RMK A01 T01030012  RH  053%=      5-min Rain = 0
KGGS 051406Z 32018G24KT 10/01 A3006 RMK A01 T01040012  RH  053%=      5-min Rain = 0
KGGS 051407Z 32016G21KT 10/01 A3006 RMK A01 T01040012  RH  053%=      5-min Rain = 0
KGGS 051408Z 31015KT 11/01 A3006 RMK A01 T01050013  RH  053%=      5-min Rain = 0
KGGS 051409Z 31013KT 11/01 A3005 RMK A01 T01050013  RH  053%=      5-min Rain = 0
KGGS 051410Z 32015KT 11/01 A3006 RMK A01 T01050013  RH  053%=      5-min Rain = 0
KGGS 051411Z 32017KT 11/01 A3006 RMK A01 T01060014  RH  053%=      5-min Rain = 0
KGGS 051412Z 32019G26KT 11/01 A3006 RMK A01 T01070014  RH  053%=      5-min Rain = 0
KGGS 051413Z 32017G23KT 11/01 A3006 RMK A01 T01060014  RH  053%=      5-min Rain = 0
KGGS 051414Z 32017KT 11/01 A3006 RMK A01 T01070014  RH  053%=      5-min Rain = 0
KGGS 051415Z 32016KT 11/01 A3006 RMK A01 T01070014  RH  052%=      5-min Rain = 0
KGGS 051416Z 32015G20KT 11/01 A3006 RMK A01 T01070014  RH  052%=      5-min Rain = 0
KGGS 051417Z 32018G24KT 11/01 A3006 RMK A01 T01070014  RH  052%=      5-min Rain = 0
KGGS 051418Z 32018G24KT 11/01 A3006 RMK A01 T01080014  RH  052%=      5-min Rain = 0
KGGS 051419Z 32019G25KT 11/02 A3006 RMK A01 T01080015  RH  053%=      5-min Rain = 0
KGGS 051420Z 32020KT 11/02 A3006 RMK A01 T01090016  RH  053%=      5-min Rain = 0
KGGS 051421Z 33017G24KT 11/02 A3006 RMK A01 T01090016  RH  053%=      5-min Rain = 0
KGGS 051422Z 32018G24KT 11/02 A3006 RMK A01 T01100017  RH  053%=      5-min Rain = 0
KGGS 051423Z 32018G27KT 11/02 A3006 RMK A01 T01110017  RH  052%=      5-min Rain = 0
KGGS 051424Z 32019G27KT 11/02 A3006 RMK A01 T01120018  RH  052%=      5-min Rain = 0
KGGS 051425Z 32019KT 11/02 A3006 RMK A01 T01130018  RH  052%=      5-min Rain = 0
KGGS 051426Z 32018G24KT 11/02 A3006 RMK A01 T01130018  RH  052%=      5-min Rain = 0
KGGS 051427Z 32021G27KT 11/02 A3006 RMK A01 T01140019  RH  052%=      5-min Rain = 0
KGGS 051428Z 32024G29KT 11/02 A3006 RMK A01 T01140019  RH  052%=      5-min Rain = 0
KGGS 051429Z 32022G27KT 11/02 A3006 RMK A01 T01140019  RH  052%=      5-min Rain = 0
KGGS 051430Z 31021G27KT 11/02 A3006 RMK A01 T01140020  RH  052%=      5-min Rain = 0
KGGS 051431Z 32020G27KT 11/02 A3006 RMK A01 T01140019  RH  052%=      5-min Rain = 0
KGGS 051432Z 32020G28KT 12/02 A3006 RMK A01 T01150020  RH  052%=      5-min Rain = 0
KGGS 051433Z 31020G28KT 12/02 A3006 RMK A01 T01150020  RH  052%=      5-min Rain = 0
KGGS 051434Z 32019G24KT 12/02 A3006 RMK A01 T01160021  RH  052%=      5-min Rain = 0
KGGS 051435Z 32018G23KT 12/02 A3006 RMK A01 T01160021  RH  052%=      5-min Rain = 0
KGGS 051436Z 31022G27KT 12/02 A3006 RMK A01 T01160021  RH  052%=      5-min Rain = 0
KGGS 051437Z 32019G26KT 12/02 A3006 RMK A01 T01170021  RH  052%=      5-min Rain = 0
KGGS 051438Z 32019KT 12/02 A3006 RMK A01 T01170021  RH  052%=      5-min Rain = 0
KGGS 051439Z 32023G29KT 12/02 A3006 RMK A01 T01170021  RH  052%=      5-min Rain = 0
KGGS 051440Z 33019G26KT 12/02 A3006 RMK A01 T01170021  RH  052%=      5-min Rain = 0
KGGS 051441Z 33015G20KT 12/02 A3006 RMK A01 T01180022  RH  052%=      5-min Rain = 0
KGGS 051442Z 33021G30KT 12/02 A3006 RMK A01 T01200022  RH  051%=      5-min Rain = 0
KGGS 051443Z 32022G27KT 12/02 A3006 RMK A01 T01200022  RH  051%=      5-min Rain = 0
KGGS 051444Z 32019G25KT 12/02 A3006 RMK A01 T01200022  RH  051%=      5-min Rain = 0
KGGS 051445Z 32022G27KT 12/02 A3006 RMK A01 T01210023  RH  051%=      5-min Rain = 0
KGGS 051446Z 32022G28KT 12/02 A3007 RMK A01 T01210024  RH  051%=      5-min Rain = 0
KGGS 051447Z 32022G30KT 12/03 A3007 RMK A01 T01220025  RH  051%=      5-min Rain = 0
KGGS 051448Z 32023G30KT 12/03 A3007 RMK A01 T01230025  RH  051%=      5-min Rain = 0
KGGS 051449Z 32024G29KT 12/03 A3007 RMK A01 T01230026  RH  051%=      5-min Rain = 0
KGGS 051450Z 32020G25KT 12/03 A3006 RMK A01 T01240026  RH  051%=      5-min Rain = 0
KGGS 051451Z 33024G29KT 13/03 A3007 RMK A01 T01250027  RH  051%=      5-min Rain = 0
KGGS 051452Z 33021G28KT 13/03 A3007 RMK A01 T01250026  RH  051%=      5-min Rain = 0
KGGS 051453Z 32022G30KT 13/03 A3007 RMK A01 T01260027  RH  051%=      5-min Rain = 0
KGGS 051454Z 33024G30KT 13/03 A3007 RMK A01 T01260027  RH  051%=      5-min Rain = 0
KGGS 051455Z 32023G29KT 13/03 A3007 RMK A01 T01270027  RH  051%=      5-min Rain = 0
KGGS 051456Z 33022G30KT 13/03 A3007 RMK A01 T01270028  RH  051%=      5-min Rain = 0
KGGS 051457Z 33021G26KT 13/03 A3007 RMK A01 T01280029  RH  051%=      5-min Rain = 0
KGGS 051458Z 33021KT 13/03 A3007 RMK A01 T01300029  RH  050%=      5-min Rain = 0
KGGS 051459Z 33022G30KT 13/03 A3007 RMK A01 T01300029  RH  050%=      5-min Rain = 0
KGGS 051500Z 32024G30KT 13/03 A3007 RMK A01 T01300029  RH  050%=      5-min Rain = 0
KGGS 051501Z 33023G31KT 13/03 A3007 RMK A01 T01300030  RH  050%=      5-min Rain = 0
KGGS 051502Z 32028G33KT 13/03 A3007 RMK A01 T01310030  RH  050%=      5-min Rain = 0
KGGS 051503Z 33023G30KT 13/03 A3007 RMK A01 T01310030  RH  050%=      5-min Rain = 0
KGGS 051504Z 33021G27KT 13/03 A3007 RMK A01 T01320031  RH  050%=      5-min Rain = 0
KGGS 051505Z 33026KT 13/03 A3007 RMK A01 T01340031  RH  050%=      5-min Rain = 0
KGGS 051506Z 33026G31KT 13/03 A3007 RMK A01 T01330030  RH  050%=      5-min Rain = 0
KGGS 051507Z 33025G30KT 13/03 A3007 RMK A01 T01320030  RH  050%=      5-min Rain = 0
KGGS 051508Z 33025G30KT 13/03 A3007 RMK A01 T01320031  RH  050%=      5-min Rain = 0
KGGS 051509Z 32024G32KT 13/03 A3007 RMK A01 T01330032  RH  050%=      5-min Rain = 0
KGGS 051510Z 33025G31KT 13/03 A3007 RMK A01 T01340032  RH  050%=      5-min Rain = 0
KGGS 051511Z 33026G35KT 14/03 A3007 RMK A01 T01350032  RH  050%=      5-min Rain = 0
KGGS 051512Z 33031G41KT 14/03 A3007 RMK A01 T01350033  RH  050%=      5-min Rain = 0
KGGS 051513Z 34027G38KT 14/03 A3007 RMK A01 T01350034  RH  050%=      5-min Rain = 0
KGGS 051514Z 33024G32KT 14/04 A3007 RMK A01 T01350035  RH  051%=      5-min Rain = 0
KGGS 051515Z 34026G32KT 14/04 A3007 RMK A01 T01370035  RH  050%=      5-min Rain = 0
KGGS 051516Z 34030G37KT 14/04 A3007 RMK A01 T01370035  RH  050%=      5-min Rain = 0
KGGS 051517Z 33031G39KT 14/04 A3008 RMK A01 T01360035  RH  051%=      5-min Rain = 0
KGGS 051518Z 33027G32KT 14/04 A3007 RMK A01 T01350036  RH  051%=      5-min Rain = 0
KGGS 051519Z 33025G31KT 14/04 A3007 RMK A01 T01350036  RH  051%=      5-min Rain = 0
KGGS 051520Z 34023G29KT 14/04 A3007 RMK A01 T01380037  RH  051%=      5-min Rain = 0
KGGS 051521Z 34022G29KT 14/04 A3007 RMK A01 T01400038  RH  050%=      5-min Rain = 0
KGGS 051522Z 33025G31KT 14/04 A3007 RMK A01 T01410038  RH  050%=      5-min Rain = 0
KGGS 051523Z 33029G40KT 14/04 A3007 RMK A01 T01410039  RH  050%=      5-min Rain = 0
KGGS 051524Z 33028G38KT 14/04 A3007 RMK A01 T01400038  RH  050%=      5-min Rain = 0
KGGS 051525Z 33026G38KT 14/04 A3007 RMK A01 T01390039  RH  051%=      5-min Rain = 0
KGGS 051526Z 33026G31KT 14/04 A3008 RMK A01 T01390039  RH  051%=      5-min Rain = 0
KGGS 051527Z 34025G30KT 14/04 A3008 RMK A01 T01400040  RH  051%=      5-min Rain = 0
KGGS 051528Z 33027G35KT 14/04 A3008 RMK A01 T01410041  RH  051%=      5-min Rain = 0
KGGS 051529Z 34029G36KT 14/04 A3008 RMK A01 T01420041  RH  051%=      5-min Rain = 0
KGGS 051530Z 33029G37KT 14/04 A3008 RMK A01 T01410041  RH  051%=      5-min Rain = 0
KGGS 051531Z 33026G32KT 14/04 A3007 RMK A01 T01400041  RH  051%=      5-min Rain = 0
KGGS 051532Z 34027G37KT 14/04 A3008 RMK A01 T01410041  RH  051%=      5-min Rain = 0
KGGS 051533Z 34029G37KT 14/04 A3008 RMK A01 T01420041  RH  051%=      5-min Rain = 0
KGGS 051534Z 34030G35KT 14/04 A3008 RMK A01 T01420041  RH  051%=      5-min Rain = 0
KGGS 051535Z 34028G33KT 14/04 A3008 RMK A01 T01410041  RH  051%=      5-min Rain = 0
KGGS 051536Z 34027G32KT 14/04 A3007 RMK A01 T01410042  RH  051%=      5-min Rain = 0
KGGS 051537Z 34027G37KT 14/04 A3008 RMK A01 T01420043  RH  051%=      5-min Rain = 0
KGGS 051538Z 33028G37KT 14/04 A3008 RMK A01 T01430042  RH  051%=      5-min Rain = 0
KGGS 051539Z 34022G29KT 14/04 A3008 RMK A01 T01430043  RH  051%=      5-min Rain = 0
KGGS 051540Z 35023G30KT 15/04 A3008 RMK A01 T01450044  RH  051%=      5-min Rain = 0
KGGS 051541Z 34023G30KT 15/04 A3008 RMK A01 T01470043  RH  050%=      5-min Rain = 0
KGGS 051542Z 34023G29KT 15/04 A3008 RMK A01 T01480043  RH  050%=      5-min Rain = 0
KGGS 051543Z 34023G30KT 15/04 A3008 RMK A01 T01490044  RH  049%=      5-min Rain = 0
KGGS 051544Z 35024G30KT 15/04 A3008 RMK A01 T01490043  RH  049%=      5-min Rain = 0
KGGS 051545Z 34021G27KT 15/04 A3008 RMK A01 T01490044  RH  049%=      5-min Rain = 0
KGGS 051546Z 34026G35KT 15/04 A3008 RMK A01 T01500044  RH  049%=      5-min Rain = 0
KGGS 051547Z 33027G37KT 15/04 A3008 RMK A01 T01500043  RH  049%=      5-min Rain = 0
KGGS 051548Z 34029G37KT 15/04 A3008 RMK A01 T01490042  RH  049%=      5-min Rain = 0
KGGS 051549Z 35029G36KT 15/04 A3008 RMK A01 T01460041  RH  049%=      5-min Rain = 0
KGGS 051550Z 35031G39KT 14/04 A3008 RMK A01 T01440042  RH  050%=      5-min Rain = 0
KGGS 051551Z 35030G37KT 14/04 A3008 RMK A01 T01440042  RH  050%=      5-min Rain = 0
KGGS 051552Z 35026G35KT 14/04 A3008 RMK A01 T01440043  RH  051%=      5-min Rain = 0
KGGS 051553Z 34024G31KT 15/04 A3008 RMK A01 T01450043  RH  051%=      5-min Rain = 0
KGGS 051554Z 34026G35KT 15/04 A3008 RMK A01 T01460044  RH  051%=      5-min Rain = 0
KGGS 051555Z 34027G33KT 15/05 A3009 RMK A01 T01470045  RH  050%=      5-min Rain = 0
KGGS 051556Z 34024G33KT 15/05 A3009 RMK A01 T01490046  RH  050%=      5-min Rain = 0
KGGS 051557Z 34024G32KT 15/05 A3009 RMK A01 T01520047  RH  049%=      5-min Rain = 0
KGGS 051558Z 35029G41KT 15/05 A3009 RMK A01 T01520046  RH  049%=      5-min Rain = 0
KGGS 051559Z 34028G34KT 15/05 A3009 RMK A01 T01480045  RH  050%=      5-min Rain = 0
KGGS 051600Z 34028KT 15/05 A3009 RMK A01 T01450046  RH  051%=      5-min Rain = 0
KGGS 051601Z 33027G38KT 15/05 A3009 RMK A01 T01470047  RH  051%=      5-min Rain = 0
KGGS 051602Z 34027G35KT 15/05 A3009 RMK A01 T01490048  RH  051%=      5-min Rain = 0
KGGS 051603Z 34028G35KT 15/05 A3009 RMK A01 T01500047  RH  050%=      5-min Rain = 0
KGGS 051604Z 34025G36KT 15/05 A3009 RMK A01 T01490046  RH  050%=      5-min Rain = 0
KGGS 051605Z 34028G36KT 15/05 A3009 RMK A01 T01460046  RH  051%=      5-min Rain = 0
KGGS 051606Z 34030G36KT 14/05 A3009 RMK A01 T01440048  RH  052%=      5-min Rain = 0
KGGS 051607Z 34027G33KT 14/05 A301 RMK A01 T01430046  RH  052%=      5-min Rain = 0
KGGS 051608Z 34025G30KT 14/05 A301 RMK A01 T01420045  RH  052%=      5-min Rain = 0
KGGS 051609Z 34023G29KT 14/05 A301 RMK A01 T01400045  RH  053%=      5-min Rain = 0
KGGS 051610Z 34025G34KT 14/05 A301 RMK A01 T01400047  RH  053%=      5-min Rain = 0
KGGS 051611Z 34022G29KT 14/05 A301 RMK A01 T01420049  RH  053%=      5-min Rain = 0
KGGS 051612Z 34026G32KT 15/05 A301 RMK A01 T01450049  RH  053%=      5-min Rain = 0
KGGS 051613Z 34021G29KT 15/05 A301 RMK A01 T01470050  RH  052%=      5-min Rain = 0
KGGS 051614Z 35027G39KT 15/05 A301 RMK A01 T01500050  RH  051%=      5-min Rain = 0
KGGS 051615Z 33027G33KT 15/05 A301 RMK A01 T01460048  RH  052%=      5-min Rain = 0
KGGS 051616Z 33023G30KT 14/05 A301 RMK A01 T01430048  RH  053%=      5-min Rain = 0
KGGS 051617Z 34027G37KT 14/05 A301 RMK A01 T01440049  RH  053%=      5-min Rain = 0
KGGS 051618Z 33029G38KT 15/05 A301 RMK A01 T01450048  RH  052%=      5-min Rain = 0
KGGS 051619Z 34030G39KT 14/05 A3011 RMK A01 T01420047  RH  053%=      5-min Rain = 0
KGGS 051620Z 33028G33KT 14/05 A3011 RMK A01 T01380046  RH  054%=      5-min Rain = 0
KGGS 051621Z 33028G34KT 14/05 A3011 RMK A01 T01370046  RH  054%=      5-min Rain = 0
KGGS 051622Z 34025G33KT 14/05 A3011 RMK A01 T01370046  RH  054%=      5-min Rain = 0
KGGS 051623Z 33030G37KT 14/05 A3011 RMK A01 T01370047  RH  054%=      5-min Rain = 0
KGGS 051624Z 33028G34KT 14/05 A3011 RMK A01 T01360047  RH  055%=      5-min Rain = 0
KGGS 051625Z 33027G35KT 14/05 A3011 RMK A01 T01350047  RH  055%=      5-min Rain = 0
KGGS 051626Z 33025G33KT 14/05 A3011 RMK A01 T01350047  RH  055%=      5-min Rain = 0
KGGS 051627Z 34027G34KT 14/05 A3011 RMK A01 T01350048  RH  056%=      5-min Rain = 0
KGGS 051628Z 34023G30KT 13/05 A3011 RMK A01 T01340047  RH  056%=      5-min Rain = 0
KGGS 051629Z 34022G29KT 13/05 A3011 RMK A01 T01330048  RH  056%=      5-min Rain = 0
KGGS 051630Z 34024G31KT 13/05 A3011 RMK A01 T01330048  RH  056%=      5-min Rain = 0
KGGS 051631Z 34024G31KT 13/05 A3011 RMK A01 T01320048  RH  057%=      5-min Rain = 0
KGGS 051632Z 34024G29KT 13/05 A3011 RMK A01 T01310048  RH  057%=      5-min Rain = 0
KGGS 051633Z 34023G29KT 13/05 A3011 RMK A01 T01310048  RH  057%=      5-min Rain = 0
KGGS 051634Z 34022G29KT 13/05 A3012 RMK A01 T01310048  RH  057%=      5-min Rain = 0
KGGS 051635Z 33023G30KT 13/05 A3012 RMK A01 T01310049  RH  057%=      5-min Rain = 0
KGGS 051636Z 34024G31KT 13/05 A3012 RMK A01 T01310049  RH  057%=      5-min Rain = 0
KGGS 051637Z 33023G30KT 13/05 A3012 RMK A01 T01310048  RH  057%=      5-min Rain = 0
KGGS 051638Z 34028G34KT 13/05 A3012 RMK A01 T01300048  RH  058%=      5-min Rain = 0
KGGS 051639Z 34025G30KT 13/05 A3012 RMK A01 T01280048  RH  058%=      5-min Rain = 0
KGGS 051640Z 34024G33KT 13/05 A3012 RMK A01 T01280048  RH  058%=      5-min Rain = 0
KGGS 051641Z 33026G33KT 13/05 A3012 RMK A01 T01280048  RH  058%=      5-min Rain = 0
KGGS 051642Z 34024G32KT 13/05 A3012 RMK A01 T01280048  RH  058%=      5-min Rain = 0
KGGS 051643Z 34024G32KT 13/05 A3012 RMK A01 T01270048  RH  059%=      5-min Rain = 0
KGGS 051644Z 34024G30KT 13/05 A3012 RMK A01 T01280048  RH  059%=      5-min Rain = 0
KGGS 051645Z 34026G33KT 13/05 A3013 RMK A01 T01270048  RH  059%=      5-min Rain = 0
KGGS 051646Z 33028G34KT 13/05 A3013 RMK A01 T01270048  RH  059%=      5-min Rain = 0
KGGS 051647Z 34023G29KT 13/05 A3013 RMK A01 T01270049  RH  059%=      5-min Rain = 0
KGGS 051648Z 34022G29KT 13/05 A3013 RMK A01 T01270049  RH  059%=      5-min Rain = 0
KGGS 051649Z 34022G30KT 13/05 A3013 RMK A01 T01260049  RH  059%=      5-min Rain = 0
KGGS 051650Z 34022G28KT 13/05 A3013 RMK A01 T01260049  RH  059%=      5-min Rain = 0
KGGS 051651Z 34018G24KT 13/05 A3013 RMK A01 T01260049  RH  059%=      5-min Rain = 0
KGGS 051652Z 33024G32KT 13/05 A3013 RMK A01 T01270050  RH  059%=      5-min Rain = 0
KGGS 051653Z 33019G26KT 13/05 A3013 RMK A01 T01270049  RH  059%=      5-min Rain = 0
KGGS 051654Z 34022G30KT 13/05 A3013 RMK A01 T01270050  RH  059%=      5-min Rain = 0
KGGS 051655Z 34022G30KT 13/05 A3013 RMK A01 T01270049  RH  059%=      5-min Rain = 0
KGGS 051656Z 34020G28KT 13/05 A3013 RMK A01 T01270050  RH  059%=      5-min Rain = 0
KGGS 051657Z 34019G24KT 13/05 A3013 RMK A01 T01270050  RH  059%=      5-min Rain = 0
KGGS 051658Z 35020G27KT 13/05 A3013 RMK A01 T01290050  RH  059%=      5-min Rain = 0
KGGS 051659Z 35023G28KT 13/05 A3013 RMK A01 T01300049  RH  058%=      5-min Rain = 0
KGGS 051700Z 35020G27KT 13/05 A3013 RMK A01 T01300049  RH  058%=      5-min Rain = 0
KGGS 051701Z 34022G30KT 13/05 A3013 RMK A01 T01310049  RH  057%=      5-min Rain = 0
KGGS 051702Z 34020G26KT 13/05 A3013 RMK A01 T01320048  RH  057%=      5-min Rain = 0
KGGS 051703Z 34023G29KT 13/05 A3013 RMK A01 T01320048  RH  057%=      5-min Rain = 0
KGGS 051704Z 34019G25KT 13/05 A3013 RMK A01 T01320048  RH  057%=      5-min Rain = 0
KGGS 051705Z 35018G25KT 13/05 A3013 RMK A01 T01330049  RH  057%=      5-min Rain = 0
KGGS 051706Z 36018G24KT 14/05 A3013 RMK A01 T01370051  RH  056%=      5-min Rain = 0
KGGS 051707Z 35019G27KT 14/05 A3013 RMK A01 T01420053  RH  055%=      5-min Rain = 0
KGGS 051708Z 36020G27KT 15/05 A3013 RMK A01 T01450051  RH  054%=      5-min Rain = 0
KGGS 051709Z 00022G28KT 15/05 A3013 RMK A01 T01450050  RH  053%=      5-min Rain = 0
KGGS 051710Z 00020G28KT 14/05 A3013 RMK A01 T01430049  RH  053%=      5-min Rain = 0
KGGS 051711Z 36018G28KT 14/05 A3013 RMK A01 T01420050  RH  054%=      5-min Rain = 0
KGGS 051712Z 36018G24KT 14/05 A3013 RMK A01 T01440051  RH  054%=      5-min Rain = 0
KGGS 051713Z 35019G24KT 14/05 A3013 RMK A01 T01440047  RH  052%=      5-min Rain = 0
KGGS 051714Z 34021G26KT 14/05 A3013 RMK A01 T01440048  RH  052%=      5-min Rain = 0
KGGS 051715Z 34022G28KT 15/05 A3013 RMK A01 T01460048  RH  052%=      5-min Rain = 0
KGGS 051716Z 34021G29KT 15/05 A3013 RMK A01 T01470046  RH  051%=      5-min Rain = 0
KGGS 051717Z 34020G28KT 15/05 A3014 RMK A01 T01470046  RH  051%=      5-min Rain = 0
KGGS 051718Z 35021G28KT 15/05 A3014 RMK A01 T01490045  RH  050%=      5-min Rain = 0
KGGS 051719Z 35024G30KT 15/04 A3014 RMK A01 T01480043  RH  049%=      5-min Rain = 0
KGGS 051720Z 35019G24KT 15/04 A3014 RMK A01 T01460043  RH  050%=      5-min Rain = 0
KGGS 051721Z 35026KT 15/05 A3014 RMK A01 T01490045  RH  050%=      5-min Rain = 0
KGGS 051722Z 35022G28KT 15/04 A3014 RMK A01 T01500042  RH  048%=      5-min Rain = 0
KGGS 051723Z 00024G33KT 15/04 A3014 RMK A01 T01490042  RH  049%=      5-min Rain = 0
KGGS 051724Z 35028G34KT 15/04 A3014 RMK A01 T01480041  RH  048%=      5-min Rain = 0
KGGS 051725Z 36024G31KT 15/04 A3014 RMK A01 T01490040  RH  048%=      5-min Rain = 0
KGGS 051726Z 01023G29KT 15/04 A3014 RMK A01 T01500040  RH  048%=      5-min Rain = 0
KGGS 051727Z 00025G33KT 15/04 A3014 RMK A01 T01490039  RH  048%=      5-min Rain = 0
KGGS 051728Z 36025G30KT 15/04 A3014 RMK A01 T01460038  RH  048%=      5-min Rain = 0
KGGS 051729Z 36023G29KT 15/04 A3014 RMK A01 T01450038  RH  049%=      5-min Rain = 0
KGGS 051730Z 36022G31KT 15/04 A3014 RMK A01 T01460040  RH  049%=      5-min Rain = 0
KGGS 051731Z 00023G30KT 15/04 A3014 RMK A01 T01480040  RH  048%=      5-min Rain = 0
KGGS 051732Z 35024G31KT 15/04 A3014 RMK A01 T01480040  RH  048%=      5-min Rain = 0
KGGS 051733Z 36025G35KT 15/04 A3014 RMK A01 T01460039  RH  049%=      5-min Rain = 0
KGGS 051734Z 36024G32KT 15/04 A3014 RMK A01 T01450040  RH  049%=      5-min Rain = 0
KGGS 051735Z 36023G29KT 15/04 A3014 RMK A01 T01470041  RH  049%=      5-min Rain = 0
KGGS 051736Z 00019G25KT 15/04 A3015 RMK A01 T01500042  RH  048%=      5-min Rain = 0
KGGS 051737Z 01021G30KT 16/04 A3014 RMK A01 T01550044  RH  047%=      5-min Rain = 0
KGGS 051738Z 01024G30KT 16/04 A3014 RMK A01 T01550042  RH  047%=      5-min Rain = 0
KGGS 051739Z 00026G34KT 15/04 A3015 RMK A01 T01530041  RH  047%=      5-min Rain = 0
KGGS 051740Z 01022G28KT 15/04 A3015 RMK A01 T01500040  RH  048%=      5-min Rain = 0
KGGS 051741Z 01023G31KT 15/04 A3015 RMK A01 T01510041  RH  048%=      5-min Rain = 0
KGGS 051742Z 01021G29KT 15/04 A3015 RMK A01 T01520042  RH  048%=      5-min Rain = 0
KGGS 051743Z 36022G28KT 16/04 A3015 RMK A01 T01560042  RH  047%=      5-min Rain = 0
KGGS 051744Z 01025G31KT 16/04 A3015 RMK A01 T01560039  RH  045%=      5-min Rain = 0
KGGS 051745Z 00026G32KT 15/04 A3015 RMK A01 T01520036  RH  046%=      5-min Rain = 0
KGGS 051746Z 01024G32KT 15/04 A3015 RMK A01 T01490037  RH  047%=      5-min Rain = 0
KGGS 051747Z 02021G30KT 15/04 A3015 RMK A01 T01520038  RH  046%=      5-min Rain = 0
KGGS 051748Z 01020G28KT 15/04 A3015 RMK A01 T01540038  RH  046%=      5-min Rain = 0
KGGS 051749Z 01022G32KT 15/04 A3014 RMK A01 T01540038  RH  046%=      5-min Rain = 0
KGGS 051750Z 01026G32KT 16/04 A3014 RMK A01 T01550036  RH  045%=      5-min Rain = 0
KGGS 051751Z 02023G29KT 16/04 A3014 RMK A01 T01550035  RH  044%=      5-min Rain = 0
KGGS 051752Z 01023G29KT 15/04 A3015 RMK A01 T01540036  RH  045%=      5-min Rain = 0
KGGS 051753Z 36024G30KT 15/04 A3015 RMK A01 T01530036  RH  045%=      5-min Rain = 0
KGGS 051754Z 36023G30KT 15/04 A3015 RMK A01 T01540036  RH  045%=      5-min Rain = 0
KGGS 051755Z 36022G34KT 16/04 A3014 RMK A01 T01550037  RH  045%=      5-min Rain = 0
KGGS 051756Z 36026G34KT 16/04 A3014 RMK A01 T01560037  RH  045%=      5-min Rain = 0
KGGS 051757Z 01021G29KT 16/04 A3014 RMK A01 T01560038  RH  045%=      5-min Rain = 0
KGGS 051758Z 01026G33KT 16/04 A3014 RMK A01 T01590038  RH  044%=      5-min Rain = 0
KGGS 051759Z 00024G33KT 16/04 A3014 RMK A01 T01560035  RH  044%=      5-min Rain = 0
KGGS 051800Z 00021G27KT 16/04 A3014 RMK A01 T01550035  RH  045%=      5-min Rain = 0
KGGS 051801Z 01026G33KT 16/04 A3014 RMK A01 T01550036  RH  045%=      5-min Rain = 0
KGGS 051802Z 00025G31KT 16/04 A3014 RMK A01 T01550037  RH  045%=      5-min Rain = 0
KGGS 051803Z 01023G29KT 16/04 A3014 RMK A01 T01550037  RH  045%=      5-min Rain = 0
KGGS 051804Z 01027G33KT 16/04 A3014 RMK A01 T01550036  RH  045%=      5-min Rain = 0
KGGS 051805Z 01022G31KT 15/04 A3014 RMK A01 T01540037  RH  046%=      5-min Rain = 0
KGGS 051806Z 00024G30KT 16/04 A3014 RMK A01 T01570039  RH  045%=      5-min Rain = 0
KGGS 051807Z 35021G29KT 16/04 A3014 RMK A01 T01580038  RH  045%=      5-min Rain = 0
KGGS 051808Z 35020G28KT 16/04 A3014 RMK A01 T01590039  RH  045%=      5-min Rain = 0
KGGS 051809Z 36024G31KT 16/04 A3014 RMK A01 T01600039  RH  044%=      5-min Rain = 0
KGGS 051810Z 35024G31KT 16/04 A3014 RMK A01 T01580038  RH  045%=      5-min Rain = 0
KGGS 051811Z 35024G29KT 16/04 A3014 RMK A01 T01580038  RH  045%=      5-min Rain = 0
KGGS 051812Z 35026G33KT 16/04 A3014 RMK A01 T01580037  RH  044%=      5-min Rain = 0
KGGS 051813Z 36023G31KT 16/04 A3014 RMK A01 T01570037  RH  045%=      5-min Rain = 0
KGGS 051814Z 00020G28KT 16/04 A3014 RMK A01 T01570039  RH  045%=      5-min Rain = 0
KGGS 051815Z 36022G30KT 16/04 A3014 RMK A01 T01600040  RH  045%=      5-min Rain = 0
KGGS 051816Z 01020G28KT 16/04 A3014 RMK A01 T01610040  RH  044%=      5-min Rain = 0
KGGS 051817Z 01025G33KT 16/04 A3014 RMK A01 T01620039  RH  044%=      5-min Rain = 0
KGGS 051818Z 35026G33KT 16/04 A3014 RMK A01 T01590039  RH  045%=      5-min Rain = 0
KGGS 051819Z 35024G30KT 16/04 A3014 RMK A01 T01580039  RH  045%=      5-min Rain = 0
KGGS 051820Z 35023G30KT 16/04 A3014 RMK A01 T01570039  RH  045%=      5-min Rain = 0
KGGS 051821Z 35027G34KT 16/04 A3014 RMK A01 T01570040  RH  045%=      5-min Rain = 0
KGGS 051822Z 35025G33KT 16/04 A3014 RMK A01 T01570040  RH  045%=      5-min Rain = 0
KGGS 051823Z 36023G30KT 16/04 A3014 RMK A01 T01560040  RH  046%=      5-min Rain = 0
KGGS 051824Z 00021G29KT 16/04 A3014 RMK A01 T01560041  RH  046%=      5-min Rain = 0
KGGS 051825Z 01023G30KT 16/04 A3014 RMK A01 T01580039  RH  045%=      5-min Rain = 0
KGGS 051826Z 01022G28KT 16/04 A3014 RMK A01 T01580036  RH  044%=      5-min Rain = 0
KGGS 051827Z 01021G30KT 16/04 A3014 RMK A01 T01570035  RH  044%=      5-min Rain = 0
KGGS 051828Z 01022G30KT 16/03 A3014 RMK A01 T01580034  RH  044%=      5-min Rain = 0
KGGS 051829Z 36024G30KT 16/04 A3014 RMK A01 T01590036  RH  044%=      5-min Rain = 0
KGGS 051830Z 35023G29KT 16/04 A3014 RMK A01 T01600037  RH  044%=      5-min Rain = 0
KGGS 051831Z 35023G29KT 16/04 A3014 RMK A01 T01600036  RH  043%=      5-min Rain = 0
KGGS 051832Z 35025G31KT 16/04 A3014 RMK A01 T01590036  RH  044%=      5-min Rain = 0
KGGS 051833Z 35023G29KT 16/04 A3014 RMK A01 T01580035  RH  044%=      5-min Rain = 0
KGGS 051834Z 36024G31KT 16/04 A3014 RMK A01 T01560036  RH  045%=      5-min Rain = 0
KGGS 051835Z 00024G30KT 16/04 A3014 RMK A01 T01580037  RH  044%=      5-min Rain = 0
KGGS 051836Z 01021G28KT 16/04 A3014 RMK A01 T01610037  RH  044%=      5-min Rain = 0
KGGS 051837Z 36023G30KT 16/04 A3014 RMK A01 T01620038  RH  044%=      5-min Rain = 0
KGGS 051838Z 00021G28KT 16/04 A3014 RMK A01 T01620038  RH  044%=      5-min Rain = 0
KGGS 051839Z 01020G28KT 16/04 A3014 RMK A01 T01620039  RH  044%=      5-min Rain = 0
KGGS 051840Z 02023G33KT 16/04 A3014 RMK A01 T01620040  RH  044%=      5-min Rain = 0
KGGS 051841Z 02026G31KT 16/04 A3014 RMK A01 T01600040  RH  045%=      5-min Rain = 0
KGGS 051842Z 02019G27KT 16/04 A3014 RMK A01 T01580040  RH  045%=      5-min Rain = 0
KGGS 051843Z 02023G31KT 16/04 A3014 RMK A01 T01600041  RH  045%=      5-min Rain = 0
KGGS 051844Z 02021G28KT 16/04 A3014 RMK A01 T01590040  RH  045%=      5-min Rain = 0
KGGS 051845Z 01023G30KT 16/04 A3014 RMK A01 T01600041  RH  045%=      5-min Rain = 0
KGGS 051846Z 00021G27KT 16/04 A3014 RMK A01 T01600041  RH  045%=      5-min Rain = 0
KGGS 051847Z 35020G28KT 16/04 A3014 RMK A01 T01620042  RH  045%=      5-min Rain = 0
KGGS 051848Z 35028G38KT 16/04 A3014 RMK A01 T01640040  RH  044%=      5-min Rain = 0
KGGS 051849Z 36023G30KT 16/04 A3014 RMK A01 T01610040  RH  044%=      5-min Rain = 0
KGGS 051850Z 00024G32KT 16/04 A3014 RMK A01 T01610041  RH  045%=      5-min Rain = 0
KGGS 051851Z 36022G30KT 16/04 A3014 RMK A01 T01590040  RH  045%=      5-min Rain = 0
KGGS 051852Z 00024G30KT 16/04 A3015 RMK A01 T01580042  RH  046%=      5-min Rain = 0
KGGS 051853Z 01020G29KT 16/04 A3014 RMK A01 T01590041  RH  045%=      5-min Rain = 0
KGGS 051854Z 02023G30KT 16/04 A3014 RMK A01 T01600041  RH  045%=      5-min Rain = 0
KGGS 051855Z 02024G29KT 16/04 A3014 RMK A01 T01590043  RH  046%=      5-min Rain = 0
KGGS 051856Z 01021G26KT 16/04 A3015 RMK A01 T01590043  RH  046%=      5-min Rain = 0
KGGS 051857Z 36022G31KT 16/04 A3015 RMK A01 T01590042  RH  046%=      5-min Rain = 0
KGGS 051858Z 36021G29KT 16/04 A3015 RMK A01 T01570039  RH  045%=      5-min Rain = 0
KGGS 051859Z 00018G23KT 16/04 A3015 RMK A01 T01590041  RH  045%=      5-min Rain = 0
KGGS 051900Z 01020G28KT 16/04 A3015 RMK A01 T01630043  RH  045%=      5-min Rain = 0
KGGS 051901Z 00021G28KT 16/04 A3015 RMK A01 T01630043  RH  045%=      5-min Rain = 0
KGGS 051902Z 00018G24KT 16/04 A3015 RMK A01 T01600042  RH  045%=      5-min Rain = 0
KGGS 051903Z 00017G24KT 16/04 A3015 RMK A01 T01580042  RH  046%=      5-min Rain = 0
KGGS 051904Z 01020G26KT 16/04 A3015 RMK A01 T01580041  RH  046%=      5-min Rain = 0
KGGS 051905Z 01024G32KT 16/04 A3015 RMK A01 T01550040  RH  046%=      5-min Rain = 0
KGGS 051906Z 01020G32KT 16/04 A3015 RMK A01 T01550042  RH  047%=      5-min Rain = 0
KGGS 051907Z 01024G30KT 16/04 A3015 RMK A01 T01570042  RH  046%=      5-min Rain = 0
KGGS 051908Z 36024G30KT 16/04 A3015 RMK A01 T01570042  RH  046%=      5-min Rain = 0
KGGS 051909Z 00022G30KT 16/04 A3015 RMK A01 T01570042  RH  046%=      5-min Rain = 0
KGGS 051910Z 36023G30KT 16/04 A3015 RMK A01 T01580043  RH  046%=      5-min Rain = 0
KGGS 051911Z 35020G25KT 16/04 A3015 RMK A01 T01580042  RH  046%=      5-min Rain = 0
KGGS 051912Z 35020G28KT 16/04 A3015 RMK A01 T01590043  RH  046%=      5-min Rain = 0
KGGS 051913Z 36021G26KT 16/04 A3015 RMK A01 T01610042  RH  045%=      5-min Rain = 0
KGGS 051914Z 01018G25KT 16/04 A3014 RMK A01 T01590043  RH  046%=      5-min Rain = 0
KGGS 051915Z 01019G27KT 16/04 A3014 RMK A01 T01580042  RH  046%=      5-min Rain = 0
KGGS 051916Z 01020G25KT 16/04 A3014 RMK A01 T01580043  RH  046%=      5-min Rain = 0
KGGS 051917Z 00021G28KT 16/04 A3014 RMK A01 T01580043  RH  046%=      5-min Rain = 0
KGGS 051918Z 00017G24KT 16/04 A3014 RMK A01 T01560042  RH  047%=      5-min Rain = 0
KGGS 051919Z 36017G28KT 16/04 A3014 RMK A01 T01570044  RH  047%=      5-min Rain = 0
KGGS 051920Z 00020G25KT 16/04 A3014 RMK A01 T01600043  RH  046%=      5-min Rain = 0
KGGS 051921Z 01021G27KT 16/04 A3014 RMK A01 T01580042  RH  046%=      5-min Rain = 0
KGGS 051922Z 36021G26KT 16/04 A3014 RMK A01 T01560042  RH  047%=      5-min Rain = 0
KGGS 051923Z 35024G31KT 16/04 A3014 RMK A01 T01560043  RH  047%=      5-min Rain = 0
KGGS 051924Z 00024G30KT 16/04 A3014 RMK A01 T01550044  RH  048%=      5-min Rain = 0
KGGS 051925Z 36021G30KT 15/04 A3014 RMK A01 T01540044  RH  048%=      5-min Rain = 0
KGGS 051926Z 35024G33KT 15/05 A3014 RMK A01 T01540045  RH  048%=      5-min Rain = 0
KGGS 051927Z 35027G32KT 15/04 A3015 RMK A01 T01540043  RH  047%=      5-min Rain = 0
KGGS 051928Z 35024G31KT 15/04 A3015 RMK A01 T01540043  RH  047%=      5-min Rain = 0
KGGS 051929Z 35022G29KT 16/04 A3015 RMK A01 T01550043  RH  047%=      5-min Rain = 0
KGGS 051930Z 36022G30KT 16/04 A3014 RMK A01 T01560043  RH  047%=      5-min Rain = 0
KGGS 051931Z 01021G30KT 16/04 A3014 RMK A01 T01550042  RH  047%=      5-min Rain = 0
KGGS 051932Z 35019G25KT 16/04 A3014 RMK A01 T01550042  RH  047%=      5-min Rain = 0
KGGS 051933Z 36026G31KT 16/04 A3015 RMK A01 T01580043  RH  046%=      5-min Rain = 0
KGGS 051934Z 00024G30KT 16/04 A3015 RMK A01 T01570040  RH  046%=      5-min Rain = 0
KGGS 051935Z 00024G30KT 15/04 A3015 RMK A01 T01540040  RH  046%=      5-min Rain = 0
KGGS 051936Z 35027KT 15/04 A3015 RMK A01 T01530039  RH  046%=      5-min Rain = 0
KGGS 051937Z 35023G29KT 15/04 A3015 RMK A01 T01520038  RH  046%=      5-min Rain = 0
KGGS 051938Z 35022G31KT 15/04 A3015 RMK A01 T01530039  RH  046%=      5-min Rain = 0
KGGS 051939Z 00023G30KT 16/04 A3015 RMK A01 T01560039  RH  045%=      5-min Rain = 0
KGGS 051940Z 00023G29KT 16/04 A3015 RMK A01 T01570039  RH  045%=      5-min Rain = 0
KGGS 051941Z 00022G31KT 16/04 A3015 RMK A01 T01550038  RH  046%=      5-min Rain = 0
KGGS 051942Z 36022G29KT 15/04 A3015 RMK A01 T01530039  RH  046%=      5-min Rain = 0
KGGS 051943Z 36021G30KT 15/04 A3015 RMK A01 T01510039  RH  047%=      5-min Rain = 0
KGGS 051944Z 35025G31KT 15/04 A3015 RMK A01 T01500039  RH  047%=      5-min Rain = 0
KGGS 051945Z 35022G28KT 15/04 A3015 RMK A01 T01470039  RH  048%=      5-min Rain = 0
KGGS 051946Z 34017G23KT 15/04 A3015 RMK A01 T01490042  RH  049%=      5-min Rain = 0
KGGS 051947Z 36024G31KT 15/04 A3015 RMK A01 T01540042  RH  047%=      5-min Rain = 0
KGGS 051948Z 01025G30KT 16/04 A3015 RMK A01 T01550037  RH  045%=      5-min Rain = 0
KGGS 051949Z 01025G32KT 15/04 A3014 RMK A01 T01520037  RH  046%=      5-min Rain = 0
KGGS 051950Z 35022G31KT 15/04 A3015 RMK A01 T01500036  RH  046%=      5-min Rain = 0
KGGS 051951Z 35021G29KT 15/04 A3015 RMK A01 T01500036  RH  046%=      5-min Rain = 0
KGGS 051952Z 35021G27KT 15/04 A3014 RMK A01 T01520038  RH  046%=      5-min Rain = 0
KGGS 051953Z 35022G27KT 16/04 A3014 RMK A01 T01550039  RH  046%=      5-min Rain = 0
KGGS 051954Z 35019G26KT 16/04 A3014 RMK A01 T01560040  RH  046%=      5-min Rain = 0
KGGS 051955Z 36022G30KT 16/04 A3014 RMK A01 T01580042  RH  046%=      5-min Rain = 0
KGGS 051956Z 00022G28KT 16/04 A3014 RMK A01 T01600040  RH  045%=      5-min Rain = 0
KGGS 051957Z 00020G27KT 16/04 A3014 RMK A01 T01580038  RH  045%=      5-min Rain = 0
KGGS 051958Z 00022G29KT 16/04 A3014 RMK A01 T01560039  RH  046%=      5-min Rain = 0
KGGS 051959Z 36023G31KT 16/04 A3014 RMK A01 T01550039  RH  046%=      5-min Rain = 0
KGGS 052000Z 00022G30KT 15/04 A3014 RMK A01 T01540040  RH  046%=      5-min Rain = 0
KGGS 052001Z 35027G34KT 16/04 A3014 RMK A01 T01550040  RH  046%=      5-min Rain = 0
KGGS 052002Z 35027G32KT 16/04 A3014 RMK A01 T01550041  RH  046%=      5-min Rain = 0
KGGS 052003Z 36026KT 15/04 A3014 RMK A01 T01540041  RH  047%=      5-min Rain = 0
KGGS 052004Z 35025G32KT 16/04 A3014 RMK A01 T01550042  RH  047%=      5-min Rain = 0
KGGS 052005Z 35025G30KT 16/04 A3014 RMK A01 T01560039  RH  046%=      5-min Rain = 0
KGGS 052006Z 35022G30KT 16/04 A3014 RMK A01 T01550037  RH  045%=      5-min Rain = 0
KGGS 052007Z 36022G30KT 16/04 A3014 RMK A01 T01580037  RH  044%=      5-min Rain = 0
KGGS 052008Z 01025G34KT 16/04 A3014 RMK A01 T01620035  RH  043%=      5-min Rain = 0
KGGS 052009Z 35023G30KT 16/03 A3014 RMK A01 T01600034  RH  043%=      5-min Rain = 0
KGGS 052010Z 35023G30KT 16/04 A3014 RMK A01 T01590035  RH  044%=      5-min Rain = 0
KGGS 052011Z 01022G31KT 16/04 A3014 RMK A01 T01630038  RH  043%=      5-min Rain = 0
KGGS 052012Z 00022G29KT 17/04 A3014 RMK A01 T01670037  RH  042%=      5-min Rain = 0
KGGS 052013Z 01023G31KT 16/04 A3014 RMK A01 T01640035  RH  042%=      5-min Rain = 0
KGGS 052014Z 01024G30KT 16/04 A3014 RMK A01 T01610036  RH  043%=      5-min Rain = 0
KGGS 052015Z 01022G30KT 16/04 A3014 RMK A01 T01610036  RH  043%=      5-min Rain = 0
KGGS 052016Z 01024G31KT 16/03 A3014 RMK A01 T01620033  RH  042%=      5-min Rain = 0
KGGS 052017Z 00029G36KT 16/03 A3014 RMK A01 T01600029  RH  041%=      5-min Rain = 0
KGGS 052018Z 35024G31KT 16/03 A3014 RMK A01 T01580028  RH  042%=      5-min Rain = 0
KGGS 052019Z 01022G28KT 16/03 A3014 RMK A01 T01590029  RH  042%=      5-min Rain = 0
KGGS 052020Z 00021G28KT 16/03 A3014 RMK A01 T01600030  RH  042%=      5-min Rain = 0
KGGS 052021Z 01023G32KT 16/03 A3014 RMK A01 T01630030  RH  041%=      5-min Rain = 0
KGGS 052022Z 01027G32KT 16/03 A3014 RMK A01 T01610028  RH  041%=      5-min Rain = 0
KGGS 052023Z 01024G31KT 16/03 A3014 RMK A01 T01590029  RH  042%=      5-min Rain = 0
KGGS 052024Z 01022G30KT 16/03 A3014 RMK A01 T01590028  RH  041%=      5-min Rain = 0
KGGS 052025Z 01023G29KT 16/03 A3014 RMK A01 T01590028  RH  042%=      5-min Rain = 0
KGGS 052026Z 35022G28KT 16/03 A3014 RMK A01 T01610029  RH  041%=      5-min Rain = 0
KGGS 052027Z 00024G30KT 16/03 A3014 RMK A01 T01640029  RH  041%=      5-min Rain = 0
KGGS 052028Z 02022G31KT 16/03 A3014 RMK A01 T01620027  RH  040%=      5-min Rain = 0
KGGS 052029Z 01022G34KT 16/03 A3014 RMK A01 T01590028  RH  041%=      5-min Rain = 0
KGGS 052030Z 01022G30KT 16/03 A3015 RMK A01 T01600030  RH  042%=      5-min Rain = 0
KGGS 052031Z 01024G30KT 16/03 A3015 RMK A01 T01630030  RH  041%=      5-min Rain = 0
KGGS 052032Z 01025G32KT 16/03 A3015 RMK A01 T01610027  RH  041%=      5-min Rain = 0
KGGS 052033Z 01022G30KT 16/03 A3015 RMK A01 T01590027  RH  041%=      5-min Rain = 0
KGGS 052034Z 36018G24KT 16/03 A3015 RMK A01 T01600028  RH  041%=      5-min Rain = 0
KGGS 052035Z 01023G31KT 16/03 A3015 RMK A01 T01600027  RH  041%=      5-min Rain = 0
KGGS 052036Z 02024G31KT 16/03 A3015 RMK A01 T01570026  RH  041%=      5-min Rain = 0
KGGS 052037Z 01022G31KT 15/03 A3015 RMK A01 T01530025  RH  042%=      5-min Rain = 0
KGGS 052038Z 01023G28KT 15/03 A3015 RMK A01 T01520026  RH  043%=      5-min Rain = 0
KGGS 052039Z 00023G31KT 15/03 A3015 RMK A01 T01510026  RH  043%=      5-min Rain = 0
KGGS 052040Z 36020G25KT 15/03 A3015 RMK A01 T01510026  RH  043%=      5-min Rain = 0
KGGS 052041Z 01020G28KT 16/03 A3015 RMK A01 T01560029  RH  042%=      5-min Rain = 0
KGGS 052042Z 01024G30KT 16/03 A3015 RMK A01 T01590028  RH  041%=      5-min Rain = 0
KGGS 052043Z 00023G30KT 16/03 A3015 RMK A01 T01570027  RH  042%=      5-min Rain = 0
KGGS 052044Z 00022G29KT 16/03 A3016 RMK A01 T01560028  RH  042%=      5-min Rain = 0
KGGS 052045Z 01017G30KT 16/03 A3016 RMK A01 T01570029  RH  042%=      5-min Rain = 0
KGGS 052046Z 01020G27KT 16/03 A3016 RMK A01 T01570028  RH  042%=      5-min Rain = 0
KGGS 052047Z 00024G30KT 15/03 A3015 RMK A01 T01540027  RH  042%=      5-min Rain = 0
KGGS 052048Z 36021G27KT 15/03 A3016 RMK A01 T01520027  RH  043%=      5-min Rain = 0
KGGS 052049Z 35021G28KT 16/03 A3015 RMK A01 T01570031  RH  043%=      5-min Rain = 0
KGGS 052050Z 36022G30KT 16/03 A3015 RMK A01 T01610030  RH  041%=      5-min Rain = 0
KGGS 052051Z 01024G30KT 16/03 A3016 RMK A01 T01620029  RH  041%=      5-min Rain = 0
KGGS 052052Z 01022G28KT 16/03 A3016 RMK A01 T01590028  RH  041%=      5-min Rain = 0
KGGS 052053Z 01024G30KT 16/03 A3016 RMK A01 T01570027  RH  042%=      5-min Rain = 0
KGGS 052054Z 02021G29KT 15/03 A3016 RMK A01 T01520025  RH  043%=      5-min Rain = 0
KGGS 052055Z 01020G27KT 15/03 A3016 RMK A01 T01500026  RH  043%=      5-min Rain = 0
KGGS 052056Z 02019G25KT 15/03 A3016 RMK A01 T01500026  RH  043%=      5-min Rain = 0
KGGS 052057Z 02025G35KT 15/03 A3016 RMK A01 T01500026  RH  043%=      5-min Rain = 0
KGGS 052058Z 01021G29KT 15/03 A3016 RMK A01 T01510028  RH  043%=      5-min Rain = 0
KGGS 052059Z 02022G31KT 15/03 A3016 RMK A01 T01530028  RH  043%=      5-min Rain = 0
KGGS 052100Z 02023G30KT 15/03 A3016 RMK A01 T01500027  RH  043%=      5-min Rain = 0
KGGS 052101Z 01024G32KT 15/03 A3016 RMK A01 T01470027  RH  044%=      5-min Rain = 0
KGGS 052102Z 00022G28KT 15/03 A3016 RMK A01 T01460027  RH  045%=      5-min Rain = 0
KGGS 052103Z 00021G26KT 15/03 A3016 RMK A01 T01460029  RH  045%=      5-min Rain = 0
KGGS 052104Z 00023G29KT 15/03 A3016 RMK A01 T01510029  RH  044%=      5-min Rain = 0
KGGS 052105Z 01024G30KT 15/03 A3016 RMK A01 T01530028  RH  043%=      5-min Rain = 0
KGGS 052106Z 00021G27KT 15/03 A3017 RMK A01 T01530029  RH  043%=      5-min Rain = 0
KGGS 052107Z 00020G27KT 15/03 A3017 RMK A01 T01530028  RH  043%=      5-min Rain = 0
KGGS 052108Z 01021G29KT 15/03 A3017 RMK A01 T01540029  RH  043%=      5-min Rain = 0
KGGS 052109Z 03019G27KT 16/03 A3017 RMK A01 T01550031  RH  043%=      5-min Rain = 0
KGGS 052110Z 02023G30KT 16/03 A3017 RMK A01 T01560029  RH  043%=      5-min Rain = 0
KGGS 052111Z 02022G29KT 15/03 A3017 RMK A01 T01530027  RH  043%=      5-min Rain = 0
KGGS 052112Z 01023G30KT 15/02 A3017 RMK A01 T01500024  RH  043%=      5-min Rain = 0
KGGS 052113Z 01024G30KT 15/02 A3017 RMK A01 T01480021  RH  042%=      5-min Rain = 0
KGGS 052114Z 01023G29KT 15/03 A3017 RMK A01 T01470025  RH  044%=      5-min Rain = 0
KGGS 052115Z 36023G32KT 15/03 A3017 RMK A01 T01490027  RH  044%=      5-min Rain = 0
KGGS 052116Z 36021G28KT 15/03 A3017 RMK A01 T01510027  RH  043%=      5-min Rain = 0
KGGS 052117Z 01022G30KT 15/03 A3017 RMK A01 T01510028  RH  043%=      5-min Rain = 0
KGGS 052118Z 01021G29KT 15/03 A3017 RMK A01 T01520027  RH  043%=      5-min Rain = 0
KGGS 052119Z 01022G27KT 15/02 A3017 RMK A01 T01500024  RH  043%=      5-min Rain = 0
KGGS 052120Z 01023G30KT 15/02 A3017 RMK A01 T01490023  RH  043%=      5-min Rain = 0
KGGS 052121Z 01023G30KT 15/02 A3017 RMK A01 T01500023  RH  042%=      5-min Rain = 0
KGGS 052122Z 02022G30KT 15/02 A3017 RMK A01 T01520023  RH  042%=      5-min Rain = 0
KGGS 052123Z 01021G30KT 15/02 A3017 RMK A01 T01530023  RH  041%=      5-min Rain = 0
KGGS 052124Z 00023G30KT 15/02 A3017 RMK A01 T01540022  RH  041%=      5-min Rain = 0
KGGS 052125Z 00021G30KT 15/02 A3018 RMK A01 T01520024  RH  042%=      5-min Rain = 0
KGGS 052126Z 01020G26KT 15/02 A3018 RMK A01 T01530024  RH  042%=      5-min Rain = 0
KGGS 052127Z 01022G27KT 15/02 A3018 RMK A01 T01500023  RH  042%=      5-min Rain = 0
KGGS 052128Z 01021KT 15/02 A3018 RMK A01 T01480023  RH  043%=      5-min Rain = 0
KGGS 052129Z 02021G27KT 15/03 A3018 RMK A01 T01480025  RH  043%=      5-min Rain = 0
KGGS 052130Z 01020G25KT 15/03 A3018 RMK A01 T01500026  RH  043%=      5-min Rain = 0
KGGS 052131Z 36018G25KT 15/03 A3018 RMK A01 T01500025  RH  043%=      5-min Rain = 0
KGGS 052132Z 01020KT 15/03 A3018 RMK A01 T01500025  RH  043%=      5-min Rain = 0
KGGS 052133Z 01023G30KT 15/02 A3018 RMK A01 T01510024  RH  042%=      5-min Rain = 0
KGGS 052134Z 36019G25KT 15/02 A3018 RMK A01 T01510023  RH  042%=      5-min Rain = 0
KGGS 052135Z 01018G25KT 15/02 A3018 RMK A01 T01520024  RH  042%=      5-min Rain = 0
KGGS 052136Z 01020G28KT 16/02 A3018 RMK A01 T01550024  RH  041%=      5-min Rain = 0
KGGS 052137Z 02020G29KT 16/02 A3018 RMK A01 T01550021  RH  040%=      5-min Rain = 0
KGGS 052138Z 01022G29KT 15/02 A3018 RMK A01 T01520021  RH  041%=      5-min Rain = 0
KGGS 052139Z 01019G26KT 15/02 A3018 RMK A01 T01490020  RH  042%=      5-min Rain = 0
KGGS 052140Z 01018G24KT 15/02 A3018 RMK A01 T01470021  RH  043%=      5-min Rain = 0
KGGS 052141Z 01020G29KT 15/02 A3018 RMK A01 T01480022  RH  043%=      5-min Rain = 0
KGGS 052142Z 01021G26KT 15/02 A3018 RMK A01 T01480024  RH  043%=      5-min Rain = 0
KGGS 052143Z 01021G33KT 15/03 A3018 RMK A01 T01460025  RH  044%=      5-min Rain = 0
KGGS 052144Z 01021G32KT 15/02 A3018 RMK A01 T01450024  RH  044%=      5-min Rain = 0
KGGS 052145Z 02020G27KT 14/02 A3018 RMK A01 T01440024  RH  044%=      5-min Rain = 0
KGGS 052146Z 02021G27KT 14/03 A3018 RMK A01 T01440025  RH  044%=      5-min Rain = 0
KGGS 052147Z 02020G25KT 14/03 A3018 RMK A01 T01430026  RH  045%=      5-min Rain = 0
KGGS 052148Z 02018G24KT 14/03 A3018 RMK A01 T01430026  RH  045%=      5-min Rain = 0
KGGS 052149Z 01021G28KT 14/03 A3018 RMK A01 T01440028  RH  045%=      5-min Rain = 0
KGGS 052150Z 01024G29KT 15/03 A3018 RMK A01 T01460027  RH  045%=      5-min Rain = 0
KGGS 052151Z 01023G32KT 15/03 A3018 RMK A01 T01460027  RH  044%=      5-min Rain = 0
KGGS 052152Z 01025G31KT 15/02 A3018 RMK A01 T01450024  RH  044%=      5-min Rain = 0
KGGS 052153Z 01024G31KT 14/02 A3019 RMK A01 T01430023  RH  044%=      5-min Rain = 0
KGGS 052154Z 01023G30KT 14/02 A3018 RMK A01 T01440024  RH  044%=      5-min Rain = 0
KGGS 052155Z 01021G29KT 15/03 A3019 RMK A01 T01470026  RH  044%=      5-min Rain = 0
KGGS 052156Z 01021G29KT 15/03 A3019 RMK A01 T01480025  RH  044%=      5-min Rain = 0
KGGS 052157Z 00021G26KT 15/03 A3019 RMK A01 T01460025  RH  044%=      5-min Rain = 0
KGGS 052158Z 01022G30KT 15/03 A3019 RMK A01 T01460026  RH  044%=      5-min Rain = 0
KGGS 052159Z 01022G30KT 15/03 A3019 RMK A01 T01470025  RH  044%=      5-min Rain = 0
KGGS 052200Z 02020G27KT 15/03 A3019 RMK A01 T01470027  RH  044%=      5-min Rain = 0
KGGS 052201Z 02022G31KT 15/03 A3019 RMK A01 T01500027  RH  044%=      5-min Rain = 0
KGGS 052202Z 02024G30KT 15/03 A3019 RMK A01 T01490025  RH  043%=      5-min Rain = 0
KGGS 052203Z 00022G28KT 15/02 A3019 RMK A01 T01450023  RH  044%=      5-min Rain = 0
KGGS 052204Z 01022G30KT 14/02 A3019 RMK A01 T01430023  RH  044%=      5-min Rain = 0
KGGS 052205Z 00023G31KT 14/02 A3019 RMK A01 T01440024  RH  044%=      5-min Rain = 0
KGGS 052206Z 36020G29KT 15/03 A3019 RMK A01 T01450025  RH  044%=      5-min Rain = 0
KGGS 052207Z 01020G26KT 15/03 A3019 RMK A01 T01450026  RH  044%=      5-min Rain = 0
KGGS 052208Z 01017G24KT 14/03 A3019 RMK A01 T01440025  RH  045%=      5-min Rain = 0
KGGS 052209Z 02023G30KT 14/03 A3019 RMK A01 T01440027  RH  045%=      5-min Rain = 0
KGGS 052210Z 02021G30KT 14/03 A3019 RMK A01 T01420025  RH  045%=      5-min Rain = 0
KGGS 052211Z 02023G31KT 14/03 A3019 RMK A01 T01390025  RH  046%=      5-min Rain = 0
KGGS 052212Z 02021G27KT 14/03 A3019 RMK A01 T01370025  RH  047%=      5-min Rain = 0
KGGS 052213Z 02020G28KT 14/03 A3019 RMK A01 T01360026  RH  047%=      5-min Rain = 0
KGGS 052214Z 02015G22KT 14/03 A3019 RMK A01 T01380027  RH  047%=      5-min Rain = 0
KGGS 052215Z 01019G26KT 14/03 A3019 RMK A01 T01420028  RH  046%=      5-min Rain = 0
KGGS 052216Z 36024G30KT 14/03 A3019 RMK A01 T01430026  RH  045%=      5-min Rain = 0
KGGS 052217Z 01022G29KT 14/02 A3019 RMK A01 T01400022  RH  045%=      5-min Rain = 0
KGGS 052218Z 01023G30KT 14/02 A3019 RMK A01 T01380023  RH  046%=      5-min Rain = 0
KGGS 052219Z 01021G28KT 14/02 A3019 RMK A01 T01390023  RH  046%=      5-min Rain = 0
KGGS 052220Z 00019G24KT 14/03 A3019 RMK A01 T01420026  RH  045%=      5-min Rain = 0
KGGS 052221Z 01020G26KT 14/03 A3019 RMK A01 T01430026  RH  045%=      5-min Rain = 0
KGGS 052222Z 01020G26KT 14/03 A3019 RMK A01 T01440025  RH  045%=      5-min Rain = 0
KGGS 052223Z 02019G28KT 14/02 A3019 RMK A01 T01430023  RH  044%=      5-min Rain = 0
KGGS 052224Z 01027G35KT 14/02 A3019 RMK A01 T01420021  RH  044%=      5-min Rain = 0
KGGS 052225Z 01021G28KT 14/02 A3019 RMK A01 T01380020  RH  044%=      5-min Rain = 0
KGGS 052226Z 01020G28KT 14/02 A3019 RMK A01 T01370021  RH  045%=      5-min Rain = 0
KGGS 052227Z 01022G30KT 14/02 A3019 RMK A01 T01390023  RH  045%=      5-min Rain = 0
KGGS 052228Z 01018G26KT 14/02 A3019 RMK A01 T01410023  RH  045%=      5-min Rain = 0
KGGS 052229Z 01020G30KT 14/02 A3019 RMK A01 T01440024  RH  044%=      5-min Rain = 0
KGGS 052230Z 02023G33KT 14/02 A3019 RMK A01 T01440022  RH  044%=      5-min Rain = 0
KGGS 052231Z 02023G30KT 14/02 A3019 RMK A01 T01430021  RH  044%=      5-min Rain = 0
KGGS 052232Z 02021G30KT 14/02 A3019 RMK A01 T01440022  RH  044%=      5-min Rain = 0
KGGS 052233Z 02020G26KT 14/02 A3019 RMK A01 T01440022  RH  044%=      5-min Rain = 0
KGGS 052234Z 02023G32KT 15/02 A3019 RMK A01 T01450023  RH  043%=      5-min Rain = 0
KGGS 052235Z 01023G30KT 15/02 A3019 RMK A01 T01470023  RH  043%=      5-min Rain = 0
KGGS 052236Z 01025G31KT 15/02 A3019 RMK A01 T01470022  RH  043%=      5-min Rain = 0
KGGS 052237Z 01022G29KT 14/02 A302 RMK A01 T01430021  RH  044%=      5-min Rain = 0
KGGS 052238Z 01022G27KT 14/02 A302 RMK A01 T01390021  RH  045%=      5-min Rain = 0
KGGS 052239Z 01019G28KT 14/02 A3019 RMK A01 T01370021  RH  045%=      5-min Rain = 0
KGGS 052240Z 02019G28KT 14/02 A302 RMK A01 T01360022  RH  046%=      5-min Rain = 0
KGGS 052241Z 01023G29KT 14/02 A3019 RMK A01 T01360021  RH  046%=      5-min Rain = 0
KGGS 052242Z 01022G31KT 13/02 A3019 RMK A01 T01340021  RH  046%=      5-min Rain = 0
KGGS 052243Z 01024G30KT 13/02 A302 RMK A01 T01330022  RH  047%=      5-min Rain = 0
KGGS 052244Z 01020G25KT 13/02 A302 RMK A01 T01320023  RH  047%=      5-min Rain = 0
KGGS 052245Z 01020G29KT 13/02 A302 RMK A01 T01320023  RH  047%=      5-min Rain = 0
KGGS 052246Z 00021G29KT 13/02 A302 RMK A01 T01330023  RH  047%=      5-min Rain = 0
KGGS 052247Z 00020G25KT 14/02 A302 RMK A01 T01350024  RH  047%=      5-min Rain = 0
KGGS 052248Z 00021G27KT 14/02 A302 RMK A01 T01370024  RH  046%=      5-min Rain = 0
KGGS 052249Z 01021KT 14/02 A302 RMK A01 T01380024  RH  046%=      5-min Rain = 0
KGGS 052250Z 02018G24KT 14/03 A302 RMK A01 T01390025  RH  046%=      5-min Rain = 0
KGGS 052251Z 01018G24KT 14/03 A302 RMK A01 T01410026  RH  046%=      5-min Rain = 0
KGGS 052252Z 01020G27KT 14/03 A302 RMK A01 T01420025  RH  045%=      5-min Rain = 0
KGGS 052253Z 01020G25KT 14/03 A302 RMK A01 T01420025  RH  045%=      5-min Rain = 0
KGGS 052254Z 00021G26KT 14/03 A302 RMK A01 T01420026  RH  045%=      5-min Rain = 0
KGGS 052255Z 01019G26KT 14/03 A302 RMK A01 T01430026  RH  045%=      5-min Rain = 0
KGGS 052256Z 01016KT 14/03 A302 RMK A01 T01430027  RH  045%=      5-min Rain = 0
KGGS 052257Z 01019G25KT 15/03 A302 RMK A01 T01450027  RH  045%=      5-min Rain = 0
KGGS 052258Z 01019G27KT 14/02 A302 RMK A01 T01440024  RH  044%=      5-min Rain = 0
KGGS 052259Z 00021G26KT 14/02 A302 RMK A01 T01420023  RH  044%=      5-min Rain = 0
KGGS 052300Z 01020G26KT 14/02 A302 RMK A01 T01410023  RH  045%=      5-min Rain = 0
KGGS 052301Z 02022G27KT 14/02 A302 RMK A01 T01390023  RH  045%=      5-min Rain = 0
KGGS 052302Z 01016G22KT 14/02 A302 RMK A01 T01370023  RH  046%=      5-min Rain = 0
KGGS 052303Z 00017G22KT 14/02 A302 RMK A01 T01370023  RH  046%=      5-min Rain = 0
KGGS 052304Z 01019G25KT 14/02 A302 RMK A01 T01370023  RH  046%=      5-min Rain = 0
KGGS 052305Z 01017G24KT 14/02 A302 RMK A01 T01370023  RH  046%=      5-min Rain = 0
KGGS 052306Z 01021G27KT 14/02 A302 RMK A01 T01370024  RH  046%=      5-min Rain = 0
KGGS 052307Z 02019G26KT 14/02 A302 RMK A01 T01360024  RH  047%=      5-min Rain = 0
KGGS 052308Z 01019G27KT 14/03 A302 RMK A01 T01350025  RH  047%=      5-min Rain = 0
KGGS 052309Z 01019G25KT 13/03 A3021 RMK A01 T01340025  RH  047%=      5-min Rain = 0
KGGS 052310Z 01022G27KT 13/03 A3021 RMK A01 T01340025  RH  048%=      5-min Rain = 0
KGGS 052311Z 01020G25KT 13/03 A3021 RMK A01 T01330025  RH  048%=      5-min Rain = 0
KGGS 052312Z 01019G25KT 13/03 A3021 RMK A01 T01330025  RH  048%=      5-min Rain = 0
KGGS 052313Z 00018G24KT 13/03 A3021 RMK A01 T01330025  RH  048%=      5-min Rain = 0
KGGS 052314Z 00018G25KT 13/03 A3021 RMK A01 T01330025  RH  048%=      5-min Rain = 0
KGGS 052315Z 00019G24KT 13/03 A3021 RMK A01 T01330026  RH  048%=      5-min Rain = 0
KGGS 052316Z 01018G24KT 13/03 A3021 RMK A01 T01330026  RH  048%=      5-min Rain = 0
KGGS 052317Z 01017G22KT 13/03 A3021 RMK A01 T01330026  RH  048%=      5-min Rain = 0
KGGS 052318Z 01016KT 13/03 A3021 RMK A01 T01340027  RH  048%=      5-min Rain = 0
KGGS 052319Z 01016KT 14/03 A3021 RMK A01 T01360027  RH  048%=      5-min Rain = 0
KGGS 052320Z 01019G24KT 14/03 A3021 RMK A01 T01370028  RH  048%=      5-min Rain = 0
KGGS 052321Z 01019G26KT 14/03 A3021 RMK A01 T01370028  RH  048%=      5-min Rain = 0
KGGS 052322Z 01022G27KT 14/03 A3021 RMK A01 T01350028  RH  048%=      5-min Rain = 0
KGGS 052323Z 00019KT 13/03 A3021 RMK A01 T01340028  RH  049%=      5-min Rain = 0
KGGS 052324Z 01018G23KT 13/03 A3021 RMK A01 T01330028  RH  049%=      5-min Rain = 0
KGGS 052325Z 02016G22KT 13/03 A3021 RMK A01 T01320028  RH  049%=      5-min Rain = 0
KGGS 052326Z 02017G22KT 13/03 A3021 RMK A01 T01320028  RH  049%=      5-min Rain = 0
KGGS 052327Z 02016KT 13/03 A3021 RMK A01 T01320029  RH  050%=      5-min Rain = 0
KGGS 052328Z 02021G30KT 13/03 A3021 RMK A01 T01330029  RH  049%=      5-min Rain = 0
KGGS 052329Z 01022G28KT 13/03 A3022 RMK A01 T01340028  RH  049%=      5-min Rain = 0
KGGS 052330Z 01021G28KT 13/03 A3021 RMK A01 T01340028  RH  049%=      5-min Rain = 0
KGGS 052331Z 01017G22KT 13/03 A3022 RMK A01 T01340028  RH  049%=      5-min Rain = 0
KGGS 052332Z 02017G22KT 13/03 A3021 RMK A01 T01340028  RH  049%=      5-min Rain = 0
KGGS 052333Z 01016G23KT 13/03 A3022 RMK A01 T01340027  RH  049%=      5-min Rain = 0
KGGS 052334Z 01019G26KT 13/03 A3022 RMK A01 T01330027  RH  049%=      5-min Rain = 0
KGGS 052335Z 02020G27KT 13/03 A3022 RMK A01 T01320026  RH  049%=      5-min Rain = 0
KGGS 052336Z 01018G26KT 13/03 A3022 RMK A01 T01310027  RH  049%=      5-min Rain = 0
KGGS 052337Z 01018KT 13/03 A3022 RMK A01 T01300027  RH  049%=      5-min Rain = 0
KGGS 052338Z 01020G25KT 13/03 A3022 RMK A01 T01300026  RH  049%=      5-min Rain = 0
KGGS 052339Z 01021G27KT 13/03 A3022 RMK A01 T01300026  RH  049%=      5-min Rain = 0
KGGS 052340Z 01020KT 13/03 A3022 RMK A01 T01290026  RH  050%=      5-min Rain = 0
KGGS 052341Z 02020G26KT 13/03 A3022 RMK A01 T01300027  RH  050%=      5-min Rain = 0
KGGS 052342Z 01018KT 13/03 A3022 RMK A01 T01310027  RH  049%=      5-min Rain = 0
KGGS 052343Z 02018KT 13/03 A3022 RMK A01 T01320028  RH  049%=      5-min Rain = 0
KGGS 052344Z 02017G22KT 13/03 A3022 RMK A01 T01330028  RH  049%=      5-min Rain = 0
KGGS 052345Z 02014G20KT 13/03 A3022 RMK A01 T01330028  RH  049%=      5-min Rain = 0
KGGS 052346Z 02015G22KT 13/03 A3022 RMK A01 T01340029  RH  049%=      5-min Rain = 0
KGGS 052347Z 02018G23KT 14/03 A3022 RMK A01 T01350028  RH  048%=      5-min Rain = 0
KGGS 052348Z 02018G23KT 13/03 A3022 RMK A01 T01340028  RH  049%=      5-min Rain = 0
KGGS 052349Z 02018G24KT 13/03 A3022 RMK A01 T01330028  RH  049%=      5-min Rain = 0
KGGS 052350Z 02017G23KT 13/03 A3022 RMK A01 T01320028  RH  049%=      5-min Rain = 0
KGGS 052351Z 02014G19KT 13/03 A3023 RMK A01 T01310027  RH  049%=      5-min Rain = 0
KGGS 052352Z 02015G21KT 13/03 A3023 RMK A01 T01310027  RH  049%=      5-min Rain = 0
KGGS 052353Z 01017G23KT 13/03 A3023 RMK A01 T01300027  RH  050%=      5-min Rain = 0
KGGS 052354Z 02016G21KT 13/03 A3023 RMK A01 T01290027  RH  050%=      5-min Rain = 0
KGGS 052355Z 02017G23KT 13/03 A3023 RMK A01 T01280028  RH  050%=      5-min Rain = 0
KGGS 052356Z 01016G21KT 13/03 A3023 RMK A01 T01280028  RH  050%=      5-min Rain = 0
KGGS 052357Z 02017G27KT 13/03 A3023 RMK A01 T01280028  RH  051%=      5-min Rain = 0
KGGS 052358Z 02019G25KT 13/03 A3023 RMK A01 T01280028  RH  051%=      5-min Rain = 0
KGGS 052359Z 02021G26KT 13/03 A3023 RMK A01 T01280029  RH  051%=      5-min Rain = 0
KGGS 060000Z 02019G24KT 13/03 A3023 RMK A01 T01280028  RH  051%=      5-min Rain = 0
KGGS 060001Z 02019KT 13/03 A3023 RMK A01 T01270029  RH  051%=      5-min Rain = 0
KGGS 060002Z 01018G26KT 13/03 A3023 RMK A01 T01270029  RH  051%=      5-min Rain = 0
KGGS 060003Z 01018G25KT 13/03 A3023 RMK A01 T01270029  RH  051%=      5-min Rain = 0
KGGS 060004Z 01019KT 13/03 A3023 RMK A01 T01270029  RH  051%=      5-min Rain = 0
KGGS 060005Z 01019G25KT 13/03 A3023 RMK A01 T01270029  RH  051%=      5-min Rain = 0
KGGS 060006Z 01018G24KT 13/03 A3024 RMK A01 T01270029  RH  051%=      5-min Rain = 0
KGGS 060007Z 01018KT 13/03 A3024 RMK A01 T01270029  RH  051%=      5-min Rain = 0
KGGS 060008Z 01018G23KT 13/03 A3024 RMK A01 T01270029  RH  051%=      5-min Rain = 0
KGGS 060009Z 01019G24KT 13/03 A3024 RMK A01 T01270029  RH  052%=      5-min Rain = 0
KGGS 060010Z 00021G28KT 13/03 A3024 RMK A01 T01260029  RH  052%=      5-min Rain = 0
KGGS 060011Z 01018G24KT 13/03 A3024 RMK A01 T01260029  RH  051%=      5-min Rain = 0
KGGS 060012Z 01017G22KT 13/03 A3024 RMK A01 T01260029  RH  051%=      5-min Rain = 0
KGGS 060013Z 01015G22KT 13/03 A3024 RMK A01 T01260029  RH  051%=      5-min Rain = 0
KGGS 060014Z 01015G22KT 13/03 A3024 RMK A01 T01260029  RH  051%=      5-min Rain = 0
KGGS 060015Z 01017G22KT 13/03 A3024 RMK A01 T01260029  RH  051%=      5-min Rain = 0
KGGS 060016Z 01017G25KT 13/03 A3024 RMK A01 T01260030  RH  052%=      5-min Rain = 0
KGGS 060017Z 01020KT 13/03 A3024 RMK A01 T01250029  RH  052%=      5-min Rain = 0
KGGS 060018Z 01017G22KT 13/03 A3024 RMK A01 T01250029  RH  052%=      5-min Rain = 0
KGGS 060019Z 01019G25KT 13/03 A3024 RMK A01 T01250028  RH  052%=      5-min Rain = 0
KGGS 060020Z 01018G23KT 13/03 A3024 RMK A01 T01250027  RH  051%=      5-min Rain = 0
KGGS 060021Z 01018G24KT 13/03 A3024 RMK A01 T01250027  RH  051%=      5-min Rain = 0
KGGS 060022Z 02020KT 13/03 A3024 RMK A01 T01250027  RH  051%=      5-min Rain = 0
KGGS 060023Z 01019KT 13/03 A3024 RMK A01 T01250027  RH  051%=      5-min Rain = 0
KGGS 060024Z 01020KT 13/03 A3024 RMK A01 T01250027  RH  051%=      5-min Rain = 0
KGGS 060025Z 00017G22KT 13/03 A3024 RMK A01 T01250027  RH  051%=      5-min Rain = 0
KGGS 060026Z 01018G24KT 13/03 A3024 RMK A01 T01250027  RH  051%=      5-min Rain = 0
KGGS 060027Z 01016G21KT 13/03 A3024 RMK A01 T01250026  RH  051%=      5-min Rain = 0
KGGS 060028Z 02016G28KT 12/03 A3024 RMK A01 T01240026  RH  051%=      5-min Rain = 0
KGGS 060029Z 01019G25KT 12/03 A3024 RMK A01 T01240026  RH  051%=      5-min Rain = 0
KGGS 060030Z 01020G27KT 12/03 A3024 RMK A01 T01240025  RH  051%=      5-min Rain = 0
KGGS 060031Z 01018G28KT 12/03 A3024 RMK A01 T01230025  RH  051%=      5-min Rain = 0
KGGS 060032Z 01022G28KT 12/03 A3024 RMK A01 T01230025  RH  051%=      5-min Rain = 0
KGGS 060033Z 01019G25KT 12/03 A3024 RMK A01 T01230025  RH  051%=      5-min Rain = 0
KGGS 060034Z 02018G23KT 12/03 A3024 RMK A01 T01230025  RH  051%=      5-min Rain = 0
KGGS 060035Z 02017G23KT 12/03 A3024 RMK A01 T01220025  RH  051%=      5-min Rain = 0
KGGS 060036Z 02018KT 12/03 A3024 RMK A01 T01220025  RH  051%=      5-min Rain = 0
KGGS 060037Z 02017KT 12/02 A3024 RMK A01 T01220024  RH  051%=      5-min Rain = 0
KGGS 060038Z 01015KT 12/03 A3024 RMK A01 T01220025  RH  051%=      5-min Rain = 0
KGGS 060039Z 02013G19KT 12/02 A3024 RMK A01 T01220024  RH  051%=      5-min Rain = 0
KGGS 060040Z 02013G20KT 12/02 A3024 RMK A01 T01210024  RH  051%=      5-min Rain = 0
KGGS 060041Z 03015G20KT 12/02 A3024 RMK A01 T01210024  RH  051%=      5-min Rain = 0
KGGS 060042Z 02014G21KT 12/02 A3024 RMK A01 T01200023  RH  051%=      5-min Rain = 0
KGGS 060043Z 02018G23KT 12/02 A3024 RMK A01 T01200024  RH  052%=      5-min Rain = 0
KGGS 060044Z 02016G21KT 12/02 A3024 RMK A01 T01200023  RH  052%=      5-min Rain = 0
KGGS 060045Z 02016KT 12/02 A3024 RMK A01 T01200024  RH  052%=      5-min Rain = 0
KGGS 060046Z 02017KT 12/02 A3025 RMK A01 T01190024  RH  052%=      5-min Rain = 0
KGGS 060047Z 02015KT 12/02 A3025 RMK A01 T01190024  RH  052%=      5-min Rain = 0
KGGS 060048Z 02014KT 12/02 A3025 RMK A01 T01190024  RH  052%=      5-min Rain = 0
KGGS 060049Z 02013KT 12/02 A3025 RMK A01 T01180024  RH  052%=      5-min Rain = 0
KGGS 060050Z 02013KT 12/02 A3025 RMK A01 T01180024  RH  053%=      5-min Rain = 0
KGGS 060051Z 02013G18KT 12/03 A3025 RMK A01 T01170025  RH  053%=      5-min Rain = 0
KGGS 060052Z 02013KT 12/02 A3025 RMK A01 T01170024  RH  053%=      5-min Rain = 0
KGGS 060053Z 02012G17KT 12/02 A3025 RMK A01 T01170024  RH  053%=      5-min Rain = 0
KGGS 060054Z 02012KT 12/02 A3025 RMK A01 T01160024  RH  053%=      5-min Rain = 0
KGGS 060055Z 02010G15KT 12/02 A3025 RMK A01 T01160024  RH  053%=      5-min Rain = 0
KGGS 060056Z 02011KT 12/02 A3025 RMK A01 T01150024  RH  053%=      5-min Rain = 0
KGGS 060057Z 02011KT 12/02 A3025 RMK A01 T01150024  RH  054%=      5-min Rain = 0
KGGS 060058Z 02011KT 11/02 A3025 RMK A01 T01140024  RH  054%=      5-min Rain = 0
KGGS 060059Z 02011KT 11/02 A3025 RMK A01 T01140024  RH  054%=      5-min Rain = 0
KGGS 060100Z 02013G22KT 11/02 A3025 RMK A01 T01140024  RH  054%=      5-min Rain = 0
KGGS 060101Z 02017G22KT 11/02 A3025 RMK A01 T01140024  RH  054%=      5-min Rain = 0
KGGS 060102Z 02014G19KT 12/03 A3025 RMK A01 T01150025  RH  054%=      5-min Rain = 0
KGGS 060103Z 02017KT 12/03 A3025 RMK A01 T01160025  RH  054%=      5-min Rain = 0
KGGS 060104Z 02012KT 12/03 A3025 RMK A01 T01160025  RH  054%=      5-min Rain = 0
KGGS 060105Z 02012G17KT 12/03 A3025 RMK A01 T01150025  RH  054%=      5-min Rain = 0
KGGS 060106Z 02013KT 11/03 A3025 RMK A01 T01140025  RH  054%=      5-min Rain = 0
KGGS 060107Z 02014KT 11/03 A3025 RMK A01 T01140025  RH  054%=      5-min Rain = 0
KGGS 060108Z 02012G17KT 11/03 A3025 RMK A01 T01140025  RH  054%=      5-min Rain = 0
KGGS 060109Z 02012KT 11/03 A3025 RMK A01 T01130025  RH  055%=      5-min Rain = 0
KGGS 060110Z 02013KT 11/03 A3025 RMK A01 T01130025  RH  055%=      5-min Rain = 0
KGGS 060111Z 02011KT 11/03 A3025 RMK A01 T01120026  RH  055%=      5-min Rain = 0
KGGS 060112Z 02013KT 11/03 A3025 RMK A01 T01120025  RH  055%=      5-min Rain = 0
KGGS 060113Z 02010KT 11/03 A3025 RMK A01 T01120026  RH  056%=      5-min Rain = 0
KGGS 060114Z 02013KT 11/03 A3025 RMK A01 T01110026  RH  056%=      5-min Rain = 0
KGGS 060115Z 02013G18KT 11/03 A3025 RMK A01 T01110026  RH  056%=      5-min Rain = 0
KGGS 060116Z 02011G17KT 11/03 A3025 RMK A01 T01110027  RH  056%=      5-min Rain = 0
KGGS 060117Z 02012KT 11/03 A3025 RMK A01 T01110026  RH  056%=      5-min Rain = 0
KGGS 060118Z 02013KT 11/03 A3026 RMK A01 T01110027  RH  056%=      5-min Rain = 0
KGGS 060119Z 02011KT 11/03 A3026 RMK A01 T01110027  RH  056%=      5-min Rain = 0
KGGS 060120Z 02013KT 11/03 A3026 RMK A01 T01100027  RH  056%=      5-min Rain = 0
KGGS 060121Z 02011KT 11/03 A3026 RMK A01 T01100027  RH  057%=      5-min Rain = 0
KGGS 060122Z 02012KT 11/03 A3026 RMK A01 T01100027  RH  057%=      5-min Rain = 0
KGGS 060123Z 02013G19KT 11/03 A3026 RMK A01 T01100027  RH  057%=      5-min Rain = 0
KGGS 060124Z 02011G16KT 11/03 A3026 RMK A01 T01100027  RH  057%=      5-min Rain = 0
KGGS 060125Z 01011KT 11/03 A3026 RMK A01 T01100027  RH  057%=      5-min Rain = 0
KGGS 060126Z 02013KT 11/03 A3026 RMK A01 T01090027  RH  057%=      5-min Rain = 0
KGGS 060127Z 01012KT 11/03 A3026 RMK A01 T01090027  RH  057%=      5-min Rain = 0
KGGS 060128Z 01011KT 11/03 A3026 RMK A01 T01090027  RH  057%=      5-min Rain = 0
KGGS 060129Z 01012G17KT 11/03 A3026 RMK A01 T01090028  RH  057%=      5-min Rain = 0
KGGS 060130Z 01012KT 11/03 A3026 RMK A01 T01090028  RH  057%=      5-min Rain = 0
KGGS 060131Z 01010KT 11/03 A3025 RMK A01 T01080028  RH  057%=      5-min Rain = 0
KGGS 060132Z 01009KT 11/03 A3025 RMK A01 T01080028  RH  058%=      5-min Rain = 0
KGGS 060133Z 01009KT 11/03 A3025 RMK A01 T01080027  RH  058%=      5-min Rain = 0
KGGS 060134Z 01010KT 11/03 A3026 RMK A01 T01070028  RH  058%=      5-min Rain = 0
KGGS 060135Z 01011KT 11/03 A3026 RMK A01 T01070028  RH  058%=      5-min Rain = 0
KGGS 060136Z 01010KT 11/03 A3026 RMK A01 T01070028  RH  058%=      5-min Rain = 0
KGGS 060137Z 01009KT 11/03 A3026 RMK A01 T01060027  RH  058%=      5-min Rain = 0
KGGS 060138Z 01011KT 11/03 A3026 RMK A01 T01060028  RH  058%=      5-min Rain = 0
KGGS 060139Z 01010KT 11/03 A3026 RMK A01 T01060028  RH  059%=      5-min Rain = 0
KGGS 060140Z 01010KT 11/03 A3026 RMK A01 T01060028  RH  059%=      5-min Rain = 0
KGGS 060141Z 01008KT 11/03 A3026 RMK A01 T01050028  RH  059%=      5-min Rain = 0
KGGS 060142Z 01008KT 11/03 A3026 RMK A01 T01050027  RH  059%=      5-min Rain = 0
KGGS 060143Z 01008KT 10/03 A3026 RMK A01 T01040028  RH  059%=      5-min Rain = 0
KGGS 060144Z 01009KT 10/03 A3026 RMK A01 T01040028  RH  059%=      5-min Rain = 0
KGGS 060145Z 01009KT 10/03 A3026 RMK A01 T01040028  RH  059%=      5-min Rain = 0
KGGS 060146Z 01008KT 10/03 A3027 RMK A01 T01040027  RH  059%=      5-min Rain = 0
KGGS 060147Z 01008KT 10/03 A3027 RMK A01 T01030027  RH  059%=      5-min Rain = 0
KGGS 060148Z 01008KT 10/03 A3027 RMK A01 T01030028  RH  060%=      5-min Rain = 0
KGGS 060149Z 02007KT 10/03 A3027 RMK A01 T01030027  RH  060%=      5-min Rain = 0
KGGS 060150Z 01008KT 10/03 A3027 RMK A01 T01020027  RH  060%=      5-min Rain = 0
KGGS 060151Z 02007KT 10/03 A3027 RMK A01 T01020028  RH  060%=      5-min Rain = 0
KGGS 060152Z 02006KT 10/03 A3027 RMK A01 T01020027  RH  060%=      5-min Rain = 0
KGGS 060153Z 01008KT 10/03 A3027 RMK A01 T01010027  RH  060%=      5-min Rain = 0
KGGS 060154Z 02008KT 10/03 A3027 RMK A01 T01010027  RH  060%=      5-min Rain = 0
KGGS 060155Z 02006KT 10/03 A3027 RMK A01 T01010028  RH  060%=      5-min Rain = 0
KGGS 060156Z 01007KT 10/03 A3027 RMK A01 T01000027  RH  061%=      5-min Rain = 0
KGGS 060157Z 02006KT 10/03 A3027 RMK A01 T00990027  RH  061%=      5-min Rain = 0
KGGS 060158Z 02006KT 10/03 A3027 RMK A01 T00990027  RH  061%=      5-min Rain = 0
KGGS 060159Z 02006KT 10/03 A3027 RMK A01 T00980027  RH  061%=      5-min Rain = 0
KGGS 060200Z 02006KT 10/03 A3027 RMK A01 T00980027  RH  061%=      5-min Rain = 0
KGGS 060201Z 01005KT 10/03 A3027 RMK A01 T00970027  RH  062%=      5-min Rain = 0
KGGS 060202Z 01006KT 10/03 A3027 RMK A01 T00970027  RH  062%=      5-min Rain = 0
KGGS 060203Z 01005KT 10/03 A3027 RMK A01 T00970027  RH  062%=      5-min Rain = 0
KGGS 060204Z 02006KT 10/03 A3027 RMK A01 T00960026  RH  062%=      5-min Rain = 0
KGGS 060205Z 01005KT 10/03 A3027 RMK A01 T00960027  RH  062%=      5-min Rain = 0
KGGS 060206Z 01005KT 10/03 A3027 RMK A01 T00950027  RH  062%=      5-min Rain = 0
KGGS 060207Z 02005KT 10/03 A3027 RMK A01 T00950026  RH  062%=      5-min Rain = 0
KGGS 060208Z 02005KT 09/03 A3027 RMK A01 T00940026  RH  063%=      5-min Rain = 0
KGGS 060209Z 01004KT 09/03 A3027 RMK A01 T00930026  RH  063%=      5-min Rain = 0
KGGS 060210Z 01005KT 09/03 A3027 RMK A01 T00930026  RH  063%=      5-min Rain = 0
KGGS 060211Z 01004KT 09/03 A3028 RMK A01 T00930026  RH  063%=      5-min Rain = 0
KGGS 060212Z 01004KT 09/03 A3028 RMK A01 T00930026  RH  063%=      5-min Rain = 0
KGGS 060213Z 01004KT 09/03 A3028 RMK A01 T00920026  RH  063%=      5-min Rain = 0
KGGS 060214Z 01004KT 09/03 A3028 RMK A01 T00920026  RH  063%=      5-min Rain = 0
KGGS 060215Z 01004KT 09/03 A3028 RMK A01 T00910026  RH  064%=      5-min Rain = 0
KGGS 060216Z 01004KT 09/03 A3028 RMK A01 T00910026  RH  064%=      5-min Rain = 0
KGGS 060217Z 01004KT 09/03 A3028 RMK A01 T00910026  RH  064%=      5-min Rain = 0
KGGS 060218Z 02003KT 09/03 A3028 RMK A01 T00910026  RH  064%=      5-min Rain = 0
KGGS 060219Z 02003KT 09/03 A3028 RMK A01 T00900026  RH  064%=      5-min Rain = 0
KGGS 060220Z 02003KT 09/03 A3028 RMK A01 T00900026  RH  064%=      5-min Rain = 0
KGGS 060221Z 02003KT 09/03 A3028 RMK A01 T00890025  RH  064%=      5-min Rain = 0
KGGS 060222Z 03003KT 09/03 A3028 RMK A01 T00890025  RH  065%=      5-min Rain = 0
KGGS 060223Z 03002KT 09/03 A3028 RMK A01 T00880025  RH  065%=      5-min Rain = 0
KGGS 060224Z 03003KT 09/03 A3028 RMK A01 T00880026  RH  065%=      5-min Rain = 0
KGGS 060225Z 02003KT 09/03 A3028 RMK A01 T00880026  RH  065%=      5-min Rain = 0
KGGS 060226Z 02003KT 09/03 A3028 RMK A01 T00870025  RH  065%=      5-min Rain = 0
KGGS 060227Z 02003KT 09/03 A3028 RMK A01 T00870025  RH  065%=      5-min Rain = 0
KGGS 060228Z 02003KT 09/03 A3028 RMK A01 T00870026  RH  065%=      5-min Rain = 0
KGGS 060229Z 01003KT 09/03 A3028 RMK A01 T00870025  RH  065%=      5-min Rain = 0
KGGS 060230Z 01003KT 09/03 A3028 RMK A01 T00870025  RH  065%=      5-min Rain = 0
KGGS 060231Z 01003KT 09/03 A3028 RMK A01 T00870026  RH  065%=      5-min Rain = 0
KGGS 060232Z 01003KT 09/03 A3028 RMK A01 T00870026  RH  065%=      5-min Rain = 0
KGGS 060233Z 01003KT 09/03 A3028 RMK A01 T00860026  RH  066%=      5-min Rain = 0
KGGS 060234Z 02003KT 09/03 A3028 RMK A01 T00860026  RH  066%=      5-min Rain = 0
KGGS 060235Z 01003KT 09/03 A3028 RMK A01 T00860025  RH  066%=      5-min Rain = 0
KGGS 060236Z 01003KT 09/03 A3028 RMK A01 T00860025  RH  066%=      5-min Rain = 0
KGGS 060237Z 01003KT 09/03 A3028 RMK A01 T00850026  RH  066%=      5-min Rain = 0
KGGS 060238Z 01003KT 09/03 A3028 RMK A01 T00850026  RH  066%=      5-min Rain = 0
KGGS 060239Z 01003KT 09/03 A3028 RMK A01 T00850026  RH  066%=      5-min Rain = 0
KGGS 060240Z 01003KT 09/03 A3028 RMK A01 T00850026  RH  066%=      5-min Rain = 0
KGGS 060241Z 00003KT 09/03 A3028 RMK A01 T00850026  RH  066%=      5-min Rain = 0
KGGS 060242Z 01003KT 09/03 A3028 RMK A01 T00850026  RH  066%=      5-min Rain = 0
KGGS 060243Z 01003KT 09/03 A3028 RMK A01 T00850026  RH  066%=      5-min Rain = 0
KGGS 060244Z 01003KT 09/03 A3028 RMK A01 T00850026  RH  066%=      5-min Rain = 0
KGGS 060245Z 01003KT 09/03 A3029 RMK A01 T00850026  RH  066%=      5-min Rain = 0
KGGS 060246Z 01003KT 09/03 A3029 RMK A01 T00850026  RH  067%=      5-min Rain = 0
KGGS 060247Z 01003KT 09/03 A3029 RMK A01 T00850026  RH  067%=      5-min Rain = 0
KGGS 060248Z 00003KT 09/03 A3029 RMK A01 T00850026  RH  067%=      5-min Rain = 0
KGGS 060249Z 01003KT 09/03 A3029 RMK A01 T00850026  RH  066%=      5-min Rain = 0
KGGS 060250Z 01004KT 08/03 A3029 RMK A01 T00840025  RH  066%=      5-min Rain = 0
KGGS 060251Z 01003KT 08/02 A3029 RMK A01 T00830024  RH  066%=      5-min Rain = 0
KGGS 060252Z 01003KT 08/02 A3029 RMK A01 T00830024  RH  066%=      5-min Rain = 0
KGGS 060253Z 01003KT 08/02 A3029 RMK A01 T00820024  RH  067%=      5-min Rain = 0
KGGS 060254Z 01003KT 08/02 A3029 RMK A01 T00810024  RH  067%=      5-min Rain = 0
KGGS 060255Z 00003KT 08/02 A3029 RMK A01 T00810024  RH  067%=      5-min Rain = 0
KGGS 060256Z 00003KT 08/02 A3029 RMK A01 T00800024  RH  068%=      5-min Rain = 0
KGGS 060257Z 00003KT 08/02 A3029 RMK A01 T00800024  RH  068%=      5-min Rain = 0
KGGS 060258Z 00003KT 08/03 A3029 RMK A01 T00800025  RH  068%=      5-min Rain = 0
KGGS 060259Z 00003KT 08/02 A3029 RMK A01 T00800024  RH  068%=      5-min Rain = 0
KGGS 060300Z 00003KT 08/02 A3029 RMK A01 T00790024  RH  068%=      5-min Rain = 0
KGGS 060301Z 01003KT 08/02 A3029 RMK A01 T00780024  RH  068%=      5-min Rain = 0
KGGS 060302Z 01003KT 08/03 A3029 RMK A01 T00780025  RH  069%=      5-min Rain = 0
KGGS 060303Z 01003KT 08/03 A3029 RMK A01 T00780025  RH  069%=      5-min Rain = 0
KGGS 060304Z 01003KT 08/02 A3029 RMK A01 T00780024  RH  069%=      5-min Rain = 0
KGGS 060305Z 01003KT 08/02 A3029 RMK A01 T00780024  RH  069%=      5-min Rain = 0
KGGS 060306Z 01003KT 08/02 A3029 RMK A01 T00780024  RH  068%=      5-min Rain = 0
KGGS 060307Z 01003KT 08/02 A3029 RMK A01 T00780024  RH  068%=      5-min Rain = 0
KGGS 060308Z 01003KT 08/02 A3029 RMK A01 T00780024  RH  069%=      5-min Rain = 0
KGGS 060309Z 01003KT 08/02 A3029 RMK A01 T00780024  RH  069%=      5-min Rain = 0
KGGS 060310Z 02003KT 08/03 A3029 RMK A01 T00780025  RH  069%=      5-min Rain = 0
KGGS 060311Z 02002KT 08/03 A3029 RMK A01 T00780025  RH  069%=      5-min Rain = 0
KGGS 060312Z 02003KT 08/03 A3029 RMK A01 T00780025  RH  069%=      5-min Rain = 0
KGGS 060313Z 01002KT 08/03 A3029 RMK A01 T00780025  RH  069%=      5-min Rain = 0
KGGS 060314Z 02002KT 08/03 A3029 RMK A01 T00780025  RH  069%=      5-min Rain = 0
KGGS 060315Z 02003KT 08/03 A3029 RMK A01 T00780025  RH  069%=      5-min Rain = 0
KGGS 060316Z 02002KT 08/03 A3029 RMK A01 T00770025  RH  069%=      5-min Rain = 0
KGGS 060317Z 02002KT 08/03 A303 RMK A01 T00770025  RH  069%=      5-min Rain = 0
KGGS 060318Z 02003KT 08/03 A303 RMK A01 T00780025  RH  069%=      5-min Rain = 0
KGGS 060319Z 01002KT 08/03 A303 RMK A01 T00780025  RH  069%=      5-min Rain = 0
KGGS 060320Z 00002KT 08/03 A303 RMK A01 T00780025  RH  069%=      5-min Rain = 0
KGGS 060321Z 00003KT 08/03 A303 RMK A01 T00780025  RH  069%=      5-min Rain = 0
KGGS 060322Z 36003KT 08/03 A303 RMK A01 T00780025  RH  069%=      5-min Rain = 0
KGGS 060323Z 36002KT 08/03 A303 RMK A01 T00780025  RH  069%=      5-min Rain = 0
KGGS 060324Z 36002KT 08/03 A303 RMK A01 T00780025  RH  069%=      5-min Rain = 0
KGGS 060325Z 35002KT 08/03 A303 RMK A01 T00780025  RH  069%=      5-min Rain = 0
KGGS 060326Z 35003KT 08/03 A303 RMK A01 T00780025  RH  069%=      5-min Rain = 0
KGGS 060327Z 00002KT 08/03 A303 RMK A01 T00770025  RH  070%=      5-min Rain = 0
KGGS 060328Z 36002KT 08/03 A303 RMK A01 T00770025  RH  070%=      5-min Rain = 0
KGGS 060329Z 36002KT 08/03 A303 RMK A01 T00770026  RH  070%=      5-min Rain = 0
KGGS 060330Z 00002KT 08/03 A303 RMK A01 T00770026  RH  070%=      5-min Rain = 0
KGGS 060331Z 00002KT 08/03 A303 RMK A01 T00770025  RH  070%=      5-min Rain = 0
KGGS 060332Z 36002KT 08/03 A303 RMK A01 T00770025  RH  070%=      5-min Rain = 0
KGGS 060333Z 35002KT 08/03 A303 RMK A01 T00760025  RH  070%=      5-min Rain = 0
KGGS 060334Z 36002KT 08/03 A303 RMK A01 T00760025  RH  070%=      5-min Rain = 0
KGGS 060335Z 35002KT 08/03 A303 RMK A01 T00760025  RH  070%=      5-min Rain = 0
KGGS 060336Z 35002KT 08/03 A303 RMK A01 T00760025  RH  070%=      5-min Rain = 0
KGGS 060337Z 35003KT 08/03 A303 RMK A01 T00760025  RH  070%=      5-min Rain = 0
KGGS 060338Z 36002KT 08/03 A3031 RMK A01 T00750025  RH  070%=      5-min Rain = 0
KGGS 060339Z 35003KT 08/03 A3031 RMK A01 T00750025  RH  070%=      5-min Rain = 0
KGGS 060340Z 00003KT 08/03 A3031 RMK A01 T00750025  RH  070%=      5-min Rain = 0
KGGS 060341Z 35003KT 08/03 A3031 RMK A01 T00750025  RH  070%=      5-min Rain = 0
KGGS 060342Z 36003KT 08/02 A3031 RMK A01 T00750024  RH  070%=      5-min Rain = 0
KGGS 060343Z 35003KT 07/02 A3031 RMK A01 T00740024  RH  070%=      5-min Rain = 0
KGGS 060344Z 35003KT 07/02 A3031 RMK A01 T00730023  RH  071%=      5-min Rain = 0
KGGS 060345Z 35003KT 07/02 A3031 RMK A01 T00720024  RH  071%=      5-min Rain = 0
KGGS 060346Z 35004KT 07/02 A3031 RMK A01 T00720024  RH  071%=      5-min Rain = 0
KGGS 060347Z 35003KT 07/02 A3031 RMK A01 T00720024  RH  071%=      5-min Rain = 0
KGGS 060348Z 35004KT 07/02 A3031 RMK A01 T00720024  RH  071%=      5-min Rain = 0
KGGS 060349Z 34004KT 07/02 A3031 RMK A01 T00720024  RH  071%=      5-min Rain = 0
KGGS 060350Z 34004KT 07/02 A3031 RMK A01 T00710024  RH  072%=      5-min Rain = 0
KGGS 060351Z 34004KT 07/02 A3031 RMK A01 T00710024  RH  072%=      5-min Rain = 0
KGGS 060352Z 34004KT 07/02 A3031 RMK A01 T00700022  RH  072%=      5-min Rain = 0
KGGS 060353Z 33003KT 07/02 A3031 RMK A01 T00680022  RH  072%=      5-min Rain = 0
KGGS 060354Z 33004KT 07/02 A3031 RMK A01 T00670021  RH  073%=      5-min Rain = 0
KGGS 060355Z 34004KT 07/02 A3031 RMK A01 T00650021  RH  073%=      5-min Rain = 0
KGGS 060356Z 33004KT 07/02 A3031 RMK A01 T00650022  RH  074%=      5-min Rain = 0
KGGS 060357Z 33003KT 07/02 A3031 RMK A01 T00660023  RH  074%=      5-min Rain = 0
KGGS 060358Z 32003KT 07/02 A3031 RMK A01 T00660023  RH  074%=      5-min Rain = 0
KGGS 060359Z 32003KT 07/02 A3031 RMK A01 T00670023  RH  073%=      5-min Rain = 0
KGGS 060400Z 32004KT 07/02 A3031 RMK A01 T00650020  RH  073%=      5-min Rain = 0
KGGS 060401Z 32004KT 06/02 A3031 RMK A01 T00630020  RH  074%=      5-min Rain = 0
KGGS 060402Z 33004KT 06/02 A3031 RMK A01 T00620019  RH  074%=      5-min Rain = 0
KGGS 060403Z 33005KT 06/02 A3031 RMK A01 T00600019  RH  075%=      5-min Rain = 0
KGGS 060404Z 34005KT 06/02 A3031 RMK A01 T00600020  RH  076%=      5-min Rain = 0
KGGS 060405Z 34004KT 06/02 A3031 RMK A01 T00600021  RH  076%=      5-min Rain = 0
KGGS 060406Z 34004KT 06/02 A3031 RMK A01 T00610021  RH  076%=      5-min Rain = 0
KGGS 060407Z 34004KT 06/02 A3031 RMK A01 T00620021  RH  075%=      5-min Rain = 0
KGGS 060408Z 34004KT 06/02 A3031 RMK A01 T00620021  RH  075%=      5-min Rain = 0
KGGS 060409Z 34004KT 06/02 A3031 RMK A01 T00620021  RH  075%=      5-min Rain = 0
KGGS 060410Z 34004KT 06/02 A3031 RMK A01 T00620021  RH  075%=      5-min Rain = 0
KGGS 060411Z 34004KT 06/02 A3031 RMK A01 T00620021  RH  075%=      5-min Rain = 0
KGGS 060412Z 34004KT 06/02 A3031 RMK A01 T00610020  RH  075%=      5-min Rain = 0
KGGS 060413Z 34004KT 06/02 A3032 RMK A01 T00600019  RH  075%=      5-min Rain = 0
KGGS 060414Z 34004KT 06/02 A3032 RMK A01 T00590019  RH  076%=      5-min Rain = 0
KGGS 060415Z 34004KT 06/02 A3032 RMK A01 T00580020  RH  076%=      5-min Rain = 0
KGGS 060416Z 34004KT 06/02 A3032 RMK A01 T00580020  RH  076%=      5-min Rain = 0
KGGS 060417Z 34004KT 06/02 A3032 RMK A01 T00580020  RH  077%=      5-min Rain = 0
KGGS 060418Z 34004KT 06/02 A3032 RMK A01 T00570019  RH  076%=      5-min Rain = 0
KGGS 060419Z 34004KT 06/02 A3032 RMK A01 T00560018  RH  077%=      5-min Rain = 0
KGGS 060420Z 34005KT 06/02 A3032 RMK A01 T00550018  RH  077%=      5-min Rain = 0
KGGS 060421Z 34004KT 05/02 A3032 RMK A01 T00540018  RH  077%=      5-min Rain = 0
KGGS 060422Z 34005KT 05/02 A3032 RMK A01 T00530018  RH  078%=      5-min Rain = 0
KGGS 060423Z 34004KT 05/02 A3032 RMK A01 T00530017  RH  078%=      5-min Rain = 0
KGGS 060424Z 34005KT 05/02 A3032 RMK A01 T00520017  RH  078%=      5-min Rain = 0
KGGS 060425Z 34005KT 05/02 A3032 RMK A01 T00510016  RH  078%=      5-min Rain = 0
KGGS 060426Z 34005KT 05/02 A3032 RMK A01 T00500017  RH  079%=      5-min Rain = 0
KGGS 060427Z 34005KT 05/02 A3032 RMK A01 T00500017  RH  079%=      5-min Rain = 0
KGGS 060428Z 34005KT 05/02 A3031 RMK A01 T00500018  RH  079%=      5-min Rain = 0
KGGS 060429Z 35005KT 05/02 A3031 RMK A01 T00500018  RH  080%=      5-min Rain = 0
KGGS 060430Z 35005KT 05/02 A3031 RMK A01 T00500017  RH  080%=      5-min Rain = 0
KGGS 060431Z 35005KT 05/02 A3031 RMK A01 T00490017  RH  080%=      5-min Rain = 0
KGGS 060432Z 35004KT 05/02 A3031 RMK A01 T00490017  RH  080%=      5-min Rain = 0
KGGS 060433Z 35005KT 05/02 A3031 RMK A01 T00480015  RH  079%=      5-min Rain = 0
KGGS 060434Z 35005KT 05/02 A3031 RMK A01 T00470015  RH  080%=      5-min Rain = 0
KGGS 060435Z 36004KT 05/02 A3031 RMK A01 T00470016  RH  080%=      5-min Rain = 0
KGGS 060436Z 36004KT 05/02 A3031 RMK A01 T00470016  RH  080%=      5-min Rain = 0
KGGS 060437Z 36004KT 05/02 A3031 RMK A01 T00470016  RH  080%=      5-min Rain = 0
KGGS 060438Z 36004KT 05/02 A3031 RMK A01 T00470016  RH  080%=      5-min Rain = 0
KGGS 060439Z 35004KT 05/02 A3031 RMK A01 T00470017  RH  081%=      5-min Rain = 0
KGGS 060440Z 35004KT 05/02 A3031 RMK A01 T00480017  RH  081%=      5-min Rain = 0
KGGS 060441Z 35004KT 05/02 A3031 RMK A01 T00480017  RH  081%=      5-min Rain = 0
KGGS 060442Z 35004KT 05/02 A3031 RMK A01 T00480018  RH  081%=      5-min Rain = 0
KGGS 060443Z 35004KT 05/02 A3031 RMK A01 T00480018  RH  081%=      5-min Rain = 0
KGGS 060444Z 35004KT 05/02 A3031 RMK A01 T00490019  RH  081%=      5-min Rain = 0
KGGS 060445Z 34003KT 05/02 A3031 RMK A01 T00490019  RH  081%=      5-min Rain = 0
KGGS 060446Z 35003KT 05/02 A3031 RMK A01 T00490019  RH  081%=      5-min Rain = 0
KGGS 060447Z 35003KT 05/02 A3031 RMK A01 T00490019  RH  081%=      5-min Rain = 0
KGGS 060448Z 35003KT 05/02 A3031 RMK A01 T00490019  RH  081%=      5-min Rain = 0
KGGS 060449Z 35002KT 05/02 A3031 RMK A01 T00490019  RH  081%=      5-min Rain = 0
KGGS 060450Z 35002KT 05/02 A3031 RMK A01 T00490019  RH  081%=      5-min Rain = 0
KGGS 060451Z 35001KT 05/02 A3031 RMK A01 T00490018  RH  080%=      5-min Rain = 0
KGGS 060452Z 34001KT 05/02 A3031 RMK A01 T00490018  RH  081%=      5-min Rain = 0
KGGS 060453Z 35001KT 05/02 A3031 RMK A01 T00480019  RH  081%=      5-min Rain = 0
KGGS 060454Z 35001KT 05/02 A3031 RMK A01 T00480019  RH  081%=      5-min Rain = 0
KGGS 060455Z 34001KT 05/02 A3032 RMK A01 T00480019  RH  082%=      5-min Rain = 0
KGGS 060456Z 34002KT 05/02 A3032 RMK A01 T00480020  RH  082%=      5-min Rain = 0
KGGS 060457Z 34003KT 05/02 A3032 RMK A01 T00500022  RH  082%=      5-min Rain = 0
KGGS 060458Z 34003KT 05/02 A3032 RMK A01 T00510023  RH  082%=      5-min Rain = 0
KGGS 060459Z 33003KT 05/02 A3032 RMK A01 T00530023  RH  081%=      5-min Rain = 0
KGGS 060500Z 34003KT 06/02 A3032 RMK A01 T00550023  RH  080%=      5-min Rain = 0
KGGS 060501Z 34002KT 06/02 A3032 RMK A01 T00560023  RH  080%=      5-min Rain = 0
KGGS 060502Z 33003KT 06/02 A3032 RMK A01 T00570024  RH  079%=      5-min Rain = 0
KGGS 060503Z 33003KT 06/02 A3032 RMK A01 T00580024  RH  079%=      5-min Rain = 0
KGGS 060504Z 33003KT 06/02 A3032 RMK A01 T00590024  RH  078%=      5-min Rain = 0
KGGS 060505Z 33003KT 06/02 A3032 RMK A01 T00600024  RH  078%=      5-min Rain = 0
KGGS 060506Z 33004KT 06/02 A3032 RMK A01 T00600024  RH  078%=      5-min Rain = 0
KGGS 060507Z 33003KT 06/02 A3032 RMK A01 T00600024  RH  078%=      5-min Rain = 0
KGGS 060508Z 33003KT 06/02 A3032 RMK A01 T00590023  RH  077%=      5-min Rain = 0
KGGS 060509Z 33003KT 06/02 A3032 RMK A01 T00580022  RH  077%=      5-min Rain = 0
KGGS 060510Z 33003KT 06/02 A3032 RMK A01 T00580022  RH  078%=      5-min Rain = 0
KGGS 060511Z 33004KT 06/02 A3032 RMK A01 T00560021  RH  078%=      5-min Rain = 0
KGGS 060512Z 33005KT 06/02 A3032 RMK A01 T00550019  RH  078%=      5-min Rain = 0
KGGS 060513Z 33005KT 05/02 A3032 RMK A01 T00530018  RH  078%=      5-min Rain = 0
KGGS 060514Z 33005KT 05/02 A3032 RMK A01 T00510018  RH  079%=      5-min Rain = 0
KGGS 060515Z 33005KT 05/02 A3032 RMK A01 T00500017  RH  079%=      5-min Rain = 0
KGGS 060516Z 33006KT 05/02 A3032 RMK A01 T00480016  RH  080%=      5-min Rain = 0
KGGS 060517Z 33005KT 05/02 A3032 RMK A01 T00460015  RH  081%=      5-min Rain = 0
KGGS 060518Z 33005KT 05/02 A3032 RMK A01 T00450016  RH  081%=      5-min Rain = 0
KGGS 060519Z 32005KT 04/02 A3032 RMK A01 T00440017  RH  082%=      5-min Rain = 0
KGGS 060520Z 33005KT 04/02 A3032 RMK A01 T00440017  RH  082%=      5-min Rain = 0
KGGS 060521Z 33005KT 04/02 A3032 RMK A01 T00440017  RH  083%=      5-min Rain = 0
KGGS 060522Z 33005KT 04/02 A3032 RMK A01 T00440016  RH  082%=      5-min Rain = 0
KGGS 060523Z 33005KT 04/02 A3032 RMK A01 T00430016  RH  083%=      5-min Rain = 0
KGGS 060524Z 33005KT 04/02 A3032 RMK A01 T00420016  RH  083%=      5-min Rain = 0
KGGS 060525Z 33005KT 04/02 A3032 RMK A01 T00420016  RH  083%=      5-min Rain = 0
KGGS 060526Z 33005KT 04/02 A3032 RMK A01 T00420017  RH  084%=      5-min Rain = 0
KGGS 060527Z 33005KT 04/02 A3032 RMK A01 T00410016  RH  083%=      5-min Rain = 0
KGGS 060528Z 33005KT 04/02 A3032 RMK A01 T00410016  RH  084%=      5-min Rain = 0
KGGS 060529Z 34005KT 04/02 A3032 RMK A01 T00410015  RH  084%=      5-min Rain = 0
KGGS 060530Z 34005KT 04/02 A3032 RMK A01 T00400016  RH  084%=      5-min Rain = 0
KGGS 060531Z 34005KT 04/02 A3032 RMK A01 T00400015  RH  084%=      5-min Rain = 0
KGGS 060532Z 34005KT 04/02 A3032 RMK A01 T00400016  RH  084%=      5-min Rain = 0
KGGS 060533Z 34005KT 04/02 A3032 RMK A01 T00400016  RH  085%=      5-min Rain = 0
KGGS 060534Z 35005KT 04/02 A3032 RMK A01 T00400016  RH  084%=      5-min Rain = 0
KGGS 060535Z 35005KT 04/02 A3032 RMK A01 T00400015  RH  083%=      5-min Rain = 0
KGGS 060536Z 35005KT 04/01 A3032 RMK A01 T00400014  RH  083%=      5-min Rain = 0
KGGS 060537Z 35004KT 04/02 A3031 RMK A01 T00400015  RH  084%=      5-min Rain = 0
KGGS 060538Z 35005KT 04/02 A3031 RMK A01 T00400015  RH  084%=      5-min Rain = 0
KGGS 060539Z 35005KT 04/02 A3031 RMK A01 T00400015  RH  084%=      5-min Rain = 0
KGGS 060540Z 35005KT 04/02 A3031 RMK A01 T00400015  RH  084%=      5-min Rain = 0
KGGS 060541Z 35005KT 04/02 A3031 RMK A01 T00400015  RH  084%=      5-min Rain = 0
KGGS 060542Z 35005KT 04/02 A3031 RMK A01 T00410016  RH  084%=      5-min Rain = 0
KGGS 060543Z 35005KT 04/02 A3031 RMK A01 T00410016  RH  084%=      5-min Rain = 0
KGGS 060544Z 35005KT 04/02 A3031 RMK A01 T00420017  RH  084%=      5-min Rain = 0
KGGS 060545Z 35005KT 04/02 A3031 RMK A01 T00420017  RH  084%=      5-min Rain = 0
KGGS 060546Z 35005KT 04/02 A3031 RMK A01 T00420017  RH  084%=      5-min Rain = 0
KGGS 060547Z 35006KT 04/02 A3031 RMK A01 T00420017  RH  084%=      5-min Rain = 0
KGGS 060548Z 36005KT 04/02 A3031 RMK A01 T00420017  RH  084%=      5-min Rain = 0
KGGS 060549Z 36006KT 04/02 A3031 RMK A01 T00420017  RH  084%=      5-min Rain = 0
KGGS 060550Z 36006KT 04/02 A3031 RMK A01 T00420016  RH  084%=      5-min Rain = 0
KGGS 060551Z 36006KT 04/02 A3031 RMK A01 T00420016  RH  083%=      5-min Rain = 0
KGGS 060552Z 00006KT 04/02 A3031 RMK A01 T00410015  RH  083%=      5-min Rain = 0
KGGS 060553Z 36006KT 04/02 A3031 RMK A01 T00410015  RH  084%=      5-min Rain = 0
KGGS 060554Z 36006KT 04/02 A3031 RMK A01 T00400016  RH  084%=      5-min Rain = 0
KGGS 060555Z 36006KT 04/02 A3031 RMK A01 T00400016  RH  084%=      5-min Rain = 0
KGGS 060556Z 36006KT 04/02 A3031 RMK A01 T00400016  RH  084%=      5-min Rain = 0
KGGS 060557Z 36006KT 04/02 A3031 RMK A01 T00400016  RH  084%=      5-min Rain = 0
KGGS 060558Z 35006KT 04/02 A3031 RMK A01 T00400016  RH  084%=      5-min Rain = 0
KGGS 060559Z 36006KT 04/02 A3031 RMK A01 T00390016  RH  085%=      5-min Rain = 0

Page generated in 0.2053 seconds.